Time,TemperatureF,DewpointF,PressureIn,WindDirection,WindDirectionDegrees,WindSpeedMPH,WindSpeedGustMPH,Humidity,HourlyPrecipIn,Conditions,Clouds,dailyrainin,SolarRadiationWatts/m^2,SoftwareType,DateUTC
2013-09-12 00:00:00,82.7,77.7,29.97,SSE,150,11.0,12.0,85,0.00,,FEW,0.26,0.00,VWS V14.01,2013-09-12 04:00:00,
2013-09-12 00:01:00,82.6,76.9,29.97,South,186,11.0,16.0,83,0.00,,FEW,0.26,0.00,VWS V14.01,2013-09-12 04:01:00,
2013-09-12 00:03:00,82.1,76.4,29.99,South,178,10.0,18.0,83,0.00,,FEW,0.26,0.00,VWS V14.01,2013-09-12 04:03:00,
2013-09-12 00:06:00,81.5,76.6,29.99,South,186,11.0,14.0,85,0.11,,FEW,0.11,0.00,VWS V14.01,2013-09-12 04:06:00,
2013-09-12 00:08:00,80.9,76.0,29.99,SSE,159,11.0,14.0,85,0.26,,FEW,0.26,0.00,VWS V14.01,2013-09-12 04:08:00,
2013-09-12 00:10:00,79.6,74.7,29.99,SW,229,0.0,14.0,85,0.48,,FEW,0.48,0.00,VWS V14.01,2013-09-12 04:10:00,
2013-09-12 00:11:00,80.0,75.1,29.99,SW,230,4.0,14.0,85,0.44,,FEW,0.44,0.00,VWS V14.01,2013-09-12 04:11:00,
2013-09-12 00:13:00,79.5,74.6,29.99,SW,229,0.0,0.0,85,0.48,,FEW,0.48,0.00,VWS V14.01,2013-09-12 04:13:00,
2013-09-12 00:16:00,79.1,74.2,29.99,SSW,193,1.0,2.0,85,0.49,,FEW,0.49,0.00,VWS V14.01,2013-09-12 04:16:00,
2013-09-12 00:17:00,78.9,74.4,29.99,SSW,193,0.0,2.0,86,0.49,,FEW,0.49,0.00,VWS V14.01,2013-09-12 04:17:00,
2013-09-12 00:19:00,78.7,74.2,29.99,SSW,193,0.0,2.0,86,0.49,,FEW,0.49,0.00,VWS V14.01,2013-09-12 04:19:00,
2013-09-12 00:20:00,78.4,74.2,29.99,SSW,192,0.0,2.0,87,0.52,,FEW,0.52,0.00,VWS V14.01,2013-09-12 04:20:00,
2013-09-12 00:21:00,78.5,74.3,29.99,SSW,193,0.0,2.0,87,0.50,,FEW,0.50,0.00,VWS V14.01,2013-09-12 04:21:00,
2013-09-12 00:22:00,78.5,74.3,29.99,SSW,192,0.0,2.0,87,0.50,,FEW,0.50,0.00,VWS V14.01,2013-09-12 04:22:00,
2013-09-12 00:24:00,78.4,74.2,29.99,SSW,192,0.0,0.0,87,0.53,,FEW,0.53,0.00,VWS V14.01,2013-09-12 04:24:00,
2013-09-12 00:26:00,78.3,74.5,29.99,SSW,192,0.0,1.0,88,0.54,,FEW,0.54,0.00,VWS V14.01,2013-09-12 04:26:00,
2013-09-12 00:27:00,78.3,74.5,29.99,SSW,192,0.0,1.0,88,0.54,,FEW,0.54,0.00,VWS V14.01,2013-09-12 04:27:00,
2013-09-12 00:29:00,78.2,74.4,29.99,South,189,0.0,1.0,88,0.54,,FEW,0.54,0.00,VWS V14.01,2013-09-12 04:29:00,
2013-09-12 00:30:00,78.1,74.6,29.99,ESE,107,0.0,3.0,89,0.54,,FEW,0.54,0.00,VWS V14.01,2013-09-12 04:30:00,
2013-09-12 00:31:00,78.2,74.7,29.99,ESE,117,0.0,2.0,89,0.54,,FEW,0.54,0.00,VWS V14.01,2013-09-12 04:31:00,
2013-09-12 00:32:00,78.2,74.7,29.99,East,100,1.0,2.0,89,0.54,,FEW,0.54,0.00,VWS V14.01,2013-09-12 04:32:00,
2013-09-12 00:33:00,78.1,74.6,29.99,ESE,107,2.0,3.0,89,0.54,,FEW,0.54,0.00,VWS V14.01,2013-09-12 04:33:00,
2013-09-12 00:35:00,78.0,74.5,29.99,ESE,107,0.0,1.0,89,0.56,,FEW,0.56,0.00,VWS V14.01,2013-09-12 04:35:00,
2013-09-12 00:36:00,78.0,74.5,29.99,ESE,107,0.0,1.0,89,0.57,,FEW,0.57,0.00,VWS V14.01,2013-09-12 04:36:00,
2013-09-12 00:37:00,77.9,74.4,29.99,SE,134,3.0,3.0,89,0.57,,FEW,0.57,0.00,VWS V14.01,2013-09-12 04:37:00,
2013-09-12 00:38:00,77.9,74.4,29.99,ESE,116,0.0,3.0,89,0.57,,FEW,0.57,0.00,VWS V14.01,2013-09-12 04:38:00,
2013-09-12 00:40:00,77.8,74.3,29.99,ESE,115,0.0,3.0,89,0.58,,FEW,0.58,0.00,VWS V14.01,2013-09-12 04:40:00,
2013-09-12 00:41:00,77.7,74.2,29.99,ESE,115,0.0,3.0,89,0.58,,FEW,0.58,0.00,VWS V14.01,2013-09-12 04:41:00,
2013-09-12 00:42:00,77.7,74.2,29.99,ESE,115,0.0,3.0,89,0.58,,FEW,0.58,0.00,VWS V14.01,2013-09-12 04:42:00,
2013-09-12 00:44:00,77.5,74.0,29.99,SSE,157,2.0,2.0,89,0.59,,FEW,0.59,0.00,VWS V14.01,2013-09-12 04:44:00,
2013-09-12 00:45:00,77.5,74.3,29.99,SE,141,0.0,3.0,90,0.62,,FEW,0.62,0.00,VWS V14.01,2013-09-12 04:45:00,
2013-09-12 00:46:00,77.4,74.2,29.99,SE,142,0.0,3.0,90,0.64,,FEW,0.64,0.00,VWS V14.01,2013-09-12 04:46:00,
2013-09-12 00:47:00,77.4,74.2,29.99,SE,142,0.0,3.0,90,0.64,,FEW,0.64,0.00,VWS V14.01,2013-09-12 04:47:00,
2013-09-12 00:49:00,77.2,74.0,29.97,SE,142,1.0,3.0,90,0.65,,FEW,0.65,0.00,VWS V14.01,2013-09-12 04:49:00,
2013-09-12 00:50:00,77.2,74.0,29.97,SE,142,1.0,3.0,90,0.65,,FEW,0.65,0.00,VWS V14.01,2013-09-12 04:50:00,
2013-09-12 00:51:00,77.1,73.9,29.97,SE,142,0.0,3.0,90,0.65,,FEW,0.65,0.00,VWS V14.01,2013-09-12 04:51:00,
2013-09-12 00:52:00,77.1,73.9,29.97,SE,142,0.0,3.0,90,0.65,,FEW,0.65,0.00,VWS V14.01,2013-09-12 04:52:00,
2013-09-12 00:55:00,77.0,73.8,29.97,SE,142,0.0,0.0,90,0.65,,FEW,0.65,0.00,VWS V14.01,2013-09-12 04:55:00,
2013-09-12 00:56:00,76.9,73.8,29.97,SE,142,0.0,0.0,90,0.65,,FEW,0.65,0.00,VWS V14.01,2013-09-12 04:56:00,
2013-09-12 00:57:00,76.9,73.8,29.97,SE,142,0.0,0.0,90,0.65,,FEW,0.65,0.00,VWS V14.01,2013-09-12 04:57:00,
2013-09-12 01:00:00,76.6,73.4,29.97,SE,141,0.0,1.0,90,0.66,,FEW,0.66,0.00,VWS V14.01,2013-09-12 05:00:00,
2013-09-12 01:02:00,76.4,73.2,29.97,SE,141,1.0,1.0,90,0.66,,FEW,0.66,0.00,VWS V14.01,2013-09-12 05:02:00,
2013-09-12 01:05:00,76.2,73.1,29.97,SE,127,0.0,1.0,90,0.66,,FEW,0.66,0.00,VWS V14.01,2013-09-12 05:05:00,
2013-09-12 01:06:00,76.2,73.1,29.97,SE,127,0.0,1.0,90,0.66,,FEW,0.66,0.00,VWS V14.01,2013-09-12 05:06:00,
2013-09-12 01:07:00,76.2,73.4,29.97,SE,127,0.0,1.0,91,0.66,,FEW,0.66,0.00,VWS V14.01,2013-09-12 05:07:00,
2013-09-12 01:08:00,76.2,73.4,29.97,SE,127,0.0,1.0,91,0.66,,FEW,0.66,0.00,VWS V14.01,2013-09-12 05:08:00,
2013-09-12 01:10:00,76.2,73.4,29.97,SE,127,0.0,1.0,91,0.66,,FEW,0.66,0.00,VWS V14.01,2013-09-12 05:10:00,
2013-09-12 01:11:00,76.2,73.4,29.97,SE,127,0.0,1.0,91,0.66,,FEW,0.66,0.00,VWS V14.01,2013-09-12 05:11:00,
2013-09-12 01:12:00,76.2,73.4,29.97,SE,127,0.0,1.0,91,0.66,,FEW,0.66,0.00,VWS V14.01,2013-09-12 05:12:00,
2013-09-12 01:13:00,76.2,73.4,29.97,SE,127,0.0,1.0,91,0.66,,FEW,0.66,0.00,VWS V14.01,2013-09-12 05:13:00,
2013-09-12 01:16:00,76.2,73.4,29.97,SE,127,0.0,0.0,91,0.18,,FEW,0.66,0.00,VWS V14.01,2013-09-12 05:16:00,
2013-09-12 01:17:00,76.2,73.4,29.96,SE,127,0.0,1.0,91,0.18,,FEW,0.66,0.00,VWS V14.01,2013-09-12 05:17:00,
2013-09-12 01:18:00,76.2,73.4,29.96,SE,127,0.0,1.0,91,0.18,,FEW,0.66,0.00,VWS V14.01,2013-09-12 05:18:00,
2013-09-12 01:20:00,76.2,73.4,29.96,SE,127,0.0,1.0,91,0.18,,FEW,0.66,0.00,VWS V14.01,2013-09-12 05:20:00,
2013-09-12 01:21:00,76.2,73.4,29.96,SE,127,0.0,1.0,91,0.18,,FEW,0.66,0.00,VWS V14.01,2013-09-12 05:21:00,
2013-09-12 01:22:00,76.2,73.4,29.96,SE,127,0.0,1.0,91,0.18,,FEW,0.66,0.00,VWS V14.01,2013-09-12 05:22:00,
2013-09-12 01:23:00,76.2,73.4,29.96,SE,127,0.0,1.0,91,0.18,,FEW,0.66,0.00,VWS V14.01,2013-09-12 05:23:00,
2013-09-12 01:24:00,76.2,73.4,29.96,SE,127,0.0,0.0,91,0.14,,FEW,0.66,0.00,VWS V14.01,2013-09-12 05:24:00,
2013-09-12 01:26:00,76.2,73.7,29.96,SE,127,0.0,0.0,92,0.14,,FEW,0.66,0.00,VWS V14.01,2013-09-12 05:26:00,
2013-09-12 01:27:00,76.2,73.7,29.96,SE,127,0.0,0.0,92,0.14,,FEW,0.66,0.00,VWS V14.01,2013-09-12 05:27:00,
2013-09-12 01:28:00,76.2,73.7,29.96,SE,127,0.0,0.0,92,0.14,,FEW,0.66,0.00,VWS V14.01,2013-09-12 05:28:00,
2013-09-12 01:29:00,76.2,73.7,29.96,SE,127,0.0,0.0,92,0.14,,FEW,0.66,0.00,VWS V14.01,2013-09-12 05:29:00,
2013-09-12 01:30:00,76.3,73.8,29.96,SE,127,0.0,0.0,92,0.14,,FEW,0.66,0.00,VWS V14.01,2013-09-12 05:30:00,
2013-09-12 01:32:00,76.2,73.7,29.96,SE,127,0.0,0.0,92,0.14,,FEW,0.66,0.00,VWS V14.01,2013-09-12 05:32:00,
2013-09-12 01:33:00,76.3,73.8,29.96,SE,127,0.0,0.0,92,0.14,,FEW,0.66,0.00,VWS V14.01,2013-09-12 05:33:00,
2013-09-12 01:35:00,76.3,73.8,29.96,SE,127,0.0,0.0,92,0.12,,FEW,0.66,0.00,VWS V14.01,2013-09-12 05:35:00,
2013-09-12 01:37:00,76.3,73.8,29.96,SE,127,0.0,0.0,92,0.12,,FEW,0.66,0.00,VWS V14.01,2013-09-12 05:37:00,
2013-09-12 01:38:00,76.3,73.8,29.96,SE,127,0.0,0.0,92,0.12,,FEW,0.66,0.00,VWS V14.01,2013-09-12 05:38:00,
2013-09-12 01:40:00,76.3,73.8,29.96,SE,127,0.0,0.0,92,0.12,,FEW,0.66,0.00,VWS V14.01,2013-09-12 05:40:00,
2013-09-12 01:43:00,76.4,74.2,29.96,SE,127,0.0,0.0,93,0.12,,FEW,0.66,0.00,VWS V14.01,2013-09-12 05:43:00,
2013-09-12 01:45:00,76.4,74.2,29.96,SE,127,0.0,2.0,93,0.07,,FEW,0.66,0.00,VWS V14.01,2013-09-12 05:45:00,
2013-09-12 01:48:00,76.4,74.2,29.96,SE,127,0.0,2.0,93,0.07,,FEW,0.66,0.00,VWS V14.01,2013-09-12 05:48:00,
2013-09-12 01:50:00,76.4,74.2,29.96,SE,127,0.0,2.0,93,0.07,,FEW,0.66,0.00,VWS V14.01,2013-09-12 05:50:00,
2013-09-12 01:51:00,76.4,74.2,29.96,SE,127,0.0,2.0,93,0.07,,FEW,0.66,0.00,VWS V14.01,2013-09-12 05:51:00,
2013-09-12 01:53:00,76.4,74.2,29.96,SE,127,0.0,2.0,93,0.07,,FEW,0.66,0.00,VWS V14.01,2013-09-12 05:53:00,
2013-09-12 01:54:00,76.4,74.2,29.96,SE,127,0.0,0.0,93,0.01,,FEW,0.66,0.00,VWS V14.01,2013-09-12 05:54:00,
2013-09-12 01:56:00,76.5,74.3,29.96,SE,127,0.0,0.0,93,0.01,,FEW,0.66,0.00,VWS V14.01,2013-09-12 05:56:00,
2013-09-12 01:58:00,76.5,74.3,29.96,SE,127,0.0,0.0,93,0.01,,FEW,0.66,0.00,VWS V14.01,2013-09-12 05:58:00,
2013-09-12 01:59:00,76.5,74.3,29.96,SE,127,0.0,0.0,93,0.01,,FEW,0.66,0.00,VWS V14.01,2013-09-12 05:59:00,
2013-09-12 02:00:00,76.5,74.3,29.96,SE,127,0.0,0.0,93,0.01,,FEW,0.66,0.00,VWS V14.01,2013-09-12 06:00:00,
2013-09-12 02:02:00,76.5,74.3,29.96,SE,127,0.0,0.0,93,0.01,,FEW,0.66,0.00,VWS V14.01,2013-09-12 06:02:00,
2013-09-12 02:03:00,76.5,74.3,29.96,SE,127,0.0,0.0,93,0.01,,FEW,0.66,0.00,VWS V14.01,2013-09-12 06:03:00,
2013-09-12 02:04:00,76.5,74.3,29.96,SE,127,0.0,0.0,93,0.00,,FEW,0.66,0.00,VWS V14.01,2013-09-12 06:04:00,
2013-09-12 02:05:00,76.5,74.3,29.96,SE,127,0.0,0.0,93,0.00,,FEW,0.66,0.00,VWS V14.01,2013-09-12 06:05:00,
2013-09-12 02:08:00,76.6,74.4,29.96,SE,127,0.0,0.0,93,0.00,,FEW,0.66,0.00,VWS V14.01,2013-09-12 06:08:00,
2013-09-12 02:09:00,76.6,74.4,29.96,SE,127,0.0,0.0,93,0.00,,FEW,0.66,0.00,VWS V14.01,2013-09-12 06:09:00,
2013-09-12 02:10:00,76.7,74.5,29.96,SE,127,0.0,0.0,93,0.00,,FEW,0.66,0.00,VWS V14.01,2013-09-12 06:10:00,
2013-09-12 02:13:00,76.7,74.5,29.96,SE,127,0.0,0.0,93,0.00,,FEW,0.66,0.00,VWS V14.01,2013-09-12 06:13:00,
2013-09-12 02:14:00,76.8,74.6,29.96,SE,127,0.0,0.0,93,0.00,,FEW,0.66,0.00,VWS V14.01,2013-09-12 06:14:00,
2013-09-12 02:16:00,76.8,74.6,29.96,SE,127,0.0,0.0,93,0.00,,FEW,0.66,0.00,VWS V14.01,2013-09-12 06:16:00,
2013-09-12 02:18:00,76.9,74.7,29.95,SE,127,0.0,0.0,93,0.00,,FEW,0.66,0.00,VWS V14.01,2013-09-12 06:18:00,
2013-09-12 02:19:00,76.9,74.7,29.95,SE,127,0.0,0.0,93,0.00,,FEW,0.66,0.00,VWS V14.01,2013-09-12 06:19:00,
2013-09-12 02:20:00,76.9,74.7,29.95,SE,127,0.0,0.0,93,0.00,,FEW,0.66,0.00,VWS V14.01,2013-09-12 06:20:00,
2013-09-12 02:21:00,77.0,74.8,29.95,SE,127,0.0,0.0,93,0.00,,FEW,0.66,0.00,VWS V14.01,2013-09-12 06:21:00,
2013-09-12 02:23:00,77.1,75.2,29.95,SE,127,0.0,0.0,94,0.00,,FEW,0.66,0.00,VWS V14.01,2013-09-12 06:23:00,
2013-09-12 02:24:00,77.1,75.2,29.95,SE,127,0.0,0.0,94,0.00,,FEW,0.66,0.00,VWS V14.01,2013-09-12 06:24:00,
2013-09-12 02:25:00,77.1,75.2,29.95,SE,127,0.0,0.0,94,0.00,,FEW,0.66,0.00,VWS V14.01,2013-09-12 06:25:00,
2013-09-12 02:26:00,77.2,75.3,29.95,SE,127,0.0,0.0,94,0.00,,FEW,0.66,0.00,VWS V14.01,2013-09-12 06:26:00,
2013-09-12 02:28:00,77.2,75.3,29.95,SE,127,0.0,0.0,94,0.00,,FEW,0.66,0.00,VWS V14.01,2013-09-12 06:28:00,
2013-09-12 02:29:00,77.3,75.4,29.95,SE,127,0.0,0.0,94,0.00,,FEW,0.66,0.00,VWS V14.01,2013-09-12 06:29:00,
2013-09-12 02:30:00,77.3,75.4,29.95,SE,127,0.0,0.0,94,0.00,,FEW,0.66,0.00,VWS V14.01,2013-09-12 06:30:00,
2013-09-12 02:32:00,77.3,75.4,29.95,SE,127,0.0,0.0,94,0.00,,FEW,0.66,0.00,VWS V14.01,2013-09-12 06:32:00,
2013-09-12 02:33:00,77.4,75.5,29.95,SE,127,0.0,0.0,94,0.00,,FEW,0.66,0.00,VWS V14.01,2013-09-12 06:33:00,
2013-09-12 02:34:00,77.4,75.5,29.95,SE,127,0.0,0.0,94,0.00,,FEW,0.66,0.00,VWS V14.01,2013-09-12 06:34:00,
2013-09-12 02:36:00,77.4,75.5,29.95,SE,127,0.0,0.0,94,0.00,,FEW,0.66,0.00,VWS V14.01,2013-09-12 06:36:00,
2013-09-12 02:37:00,77.4,75.5,29.95,SE,127,0.0,0.0,94,0.00,,FEW,0.66,0.00,VWS V14.01,2013-09-12 06:37:00,
2013-09-12 02:38:00,77.4,75.5,29.95,SE,127,0.0,0.0,94,0.00,,FEW,0.66,0.00,VWS V14.01,2013-09-12 06:38:00,
2013-09-12 02:39:00,77.4,75.5,29.95,SE,127,0.0,0.0,94,0.00,,FEW,0.66,0.00,VWS V14.01,2013-09-12 06:39:00,
2013-09-12 02:40:00,77.4,75.5,29.95,SE,127,0.0,0.0,94,0.00,,FEW,0.66,0.00,VWS V14.01,2013-09-12 06:40:00,
2013-09-12 02:41:00,77.4,75.5,29.95,SE,127,0.0,0.0,94,0.00,,FEW,0.66,0.00,VWS V14.01,2013-09-12 06:41:00,
2013-09-12 02:42:00,77.4,75.5,29.95,SE,127,0.0,0.0,94,0.00,,FEW,0.66,0.00,VWS V14.01,2013-09-12 06:42:00,
2013-09-12 02:43:00,77.4,75.5,29.95,SE,127,0.0,0.0,94,0.00,,FEW,0.66,0.00,VWS V14.01,2013-09-12 06:43:00,
2013-09-12 02:44:00,77.4,75.5,29.95,SE,127,0.0,0.0,94,0.00,,FEW,0.66,0.00,VWS V14.01,2013-09-12 06:44:00,
2013-09-12 02:45:00,77.4,75.5,29.95,SE,127,0.0,0.0,94,0.00,,FEW,0.66,0.00,VWS V14.01,2013-09-12 06:45:00,
2013-09-12 02:47:00,77.4,75.5,29.95,SE,127,0.0,0.0,94,0.00,,FEW,0.66,0.00,VWS V14.01,2013-09-12 06:47:00,
2013-09-12 02:48:00,77.4,75.5,29.95,SE,127,0.0,0.0,94,0.00,,FEW,0.66,0.00,VWS V14.01,2013-09-12 06:48:00,
2013-09-12 02:49:00,77.5,75.6,29.95,SE,127,0.0,0.0,94,0.00,,FEW,0.66,0.00,VWS V14.01,2013-09-12 06:49:00,
2013-09-12 02:50:00,77.5,75.6,29.95,SE,127,0.0,0.0,94,0.00,,FEW,0.66,0.00,VWS V14.01,2013-09-12 06:50:00,
2013-09-12 02:52:00,77.5,75.6,29.95,SE,127,0.0,0.0,94,0.00,,FEW,0.66,0.00,VWS V14.01,2013-09-12 06:52:00,
2013-09-12 02:53:00,77.5,75.6,29.95,SE,127,0.0,0.0,94,0.00,,FEW,0.66,0.00,VWS V14.01,2013-09-12 06:53:00,
2013-09-12 02:54:00,77.6,75.7,29.95,SE,127,0.0,0.0,94,0.00,,FEW,0.66,0.00,VWS V14.01,2013-09-12 06:54:00,
2013-09-12 02:55:00,77.6,75.7,29.95,SE,127,0.0,0.0,94,0.00,,FEW,0.66,0.00,VWS V14.01,2013-09-12 06:55:00,
2013-09-12 02:57:00,77.6,75.7,29.95,SE,127,0.0,0.0,94,0.00,,FEW,0.66,0.00,VWS V14.01,2013-09-12 06:57:00,
2013-09-12 02:58:00,77.6,75.7,29.95,SE,127,0.0,1.0,94,0.00,,FEW,0.66,0.00,VWS V14.01,2013-09-12 06:58:00,
2013-09-12 02:59:00,77.6,75.7,29.95,SE,127,0.0,1.0,94,0.00,,FEW,0.66,0.00,VWS V14.01,2013-09-12 06:59:00,
2013-09-12 03:00:00,77.6,75.7,29.95,SE,127,0.0,1.0,94,0.00,,FEW,0.66,0.00,VWS V14.01,2013-09-12 07:00:00,
2013-09-12 03:01:00,77.6,75.7,29.95,SE,127,0.0,1.0,94,0.00,,FEW,0.66,0.00,VWS V14.01,2013-09-12 07:01:00,
2013-09-12 03:02:00,77.6,75.7,29.94,SE,127,0.0,1.0,94,0.00,,FEW,0.66,0.00,VWS V14.01,2013-09-12 07:02:00,
2013-09-12 03:04:00,77.6,75.7,29.94,SE,127,0.0,0.0,94,0.00,,FEW,0.66,0.00,VWS V14.01,2013-09-12 07:04:00,
2013-09-12 03:05:00,77.7,75.8,29.94,SE,127,0.0,0.0,94,0.00,,FEW,0.66,0.00,VWS V14.01,2013-09-12 07:05:00,
2013-09-12 03:07:00,77.7,75.8,29.94,SE,127,0.0,0.0,94,0.00,,FEW,0.66,0.00,VWS V14.01,2013-09-12 07:07:00,
2013-09-12 03:09:00,77.7,75.8,29.94,SE,127,1.0,1.0,94,0.00,,FEW,0.66,0.00,VWS V14.01,2013-09-12 07:09:00,
2013-09-12 03:10:00,77.8,75.9,29.94,SE,127,0.0,1.0,94,0.00,,FEW,0.66,0.00,VWS V14.01,2013-09-12 07:10:00,
2013-09-12 03:13:00,77.8,75.9,29.94,SE,127,0.0,1.0,94,0.00,,FEW,0.66,0.00,VWS V14.01,2013-09-12 07:13:00,
2013-09-12 03:14:00,77.8,75.9,29.94,SE,127,0.0,0.0,94,0.00,,FEW,0.66,0.00,VWS V14.01,2013-09-12 07:14:00,
2013-09-12 03:15:00,77.8,75.9,29.94,SE,127,0.0,0.0,94,0.00,,FEW,0.66,0.00,VWS V14.01,2013-09-12 07:15:00,
2013-09-12 03:19:00,77.9,76.0,29.94,SE,127,0.0,0.0,94,0.00,,FEW,0.66,0.00,VWS V14.01,2013-09-12 07:19:00,
2013-09-12 03:20:00,77.9,76.0,29.94,SE,127,0.0,0.0,94,0.00,,FEW,0.66,0.00,VWS V14.01,2013-09-12 07:20:00,
2013-09-12 03:23:00,77.9,76.0,29.94,SE,127,0.0,0.0,94,0.00,,FEW,0.66,0.00,VWS V14.01,2013-09-12 07:23:00,
2013-09-12 03:24:00,77.9,76.0,29.94,SE,127,0.0,0.0,94,0.00,,FEW,0.66,0.00,VWS V14.01,2013-09-12 07:24:00,
2013-09-12 03:25:00,77.9,76.0,29.94,SE,127,0.0,0.0,94,0.00,,FEW,0.66,0.00,VWS V14.01,2013-09-12 07:25:00,
2013-09-12 03:29:00,78.0,76.1,29.94,SE,127,0.0,1.0,94,0.00,,FEW,0.66,0.00,VWS V14.01,2013-09-12 07:29:00,
2013-09-12 03:30:00,77.9,76.0,29.94,SE,127,0.0,1.0,94,0.00,,FEW,0.66,0.00,VWS V14.01,2013-09-12 07:30:00,
2013-09-12 03:34:00,77.9,76.0,29.94,SE,127,0.0,0.0,94,0.00,,FEW,0.66,0.00,VWS V14.01,2013-09-12 07:34:00,
2013-09-12 03:35:00,77.9,76.0,29.94,SE,127,0.0,0.0,94,0.00,,FEW,0.66,0.00,VWS V14.01,2013-09-12 07:35:00,
2013-09-12 03:39:00,77.9,76.0,29.94,SE,127,0.0,0.0,94,0.00,,FEW,0.66,0.00,VWS V14.01,2013-09-12 07:39:00,
2013-09-12 03:40:00,78.0,76.1,29.94,SE,127,0.0,0.0,94,0.00,,FEW,0.66,0.00,VWS V14.01,2013-09-12 07:40:00,
2013-09-12 03:41:00,78.0,76.1,29.94,SE,127,0.0,0.0,94,0.00,,FEW,0.66,0.00,VWS V14.01,2013-09-12 07:41:00,
2013-09-12 03:44:00,78.0,76.1,29.94,SE,127,0.0,1.0,94,0.00,,FEW,0.66,0.00,VWS V14.01,2013-09-12 07:44:00,
2013-09-12 03:45:00,78.0,76.1,29.94,SE,127,0.0,1.0,94,0.00,,FEW,0.66,0.00,VWS V14.01,2013-09-12 07:45:00,
2013-09-12 03:46:00,78.0,76.1,29.94,SE,127,0.0,1.0,94,0.00,,FEW,0.66,0.00,VWS V14.01,2013-09-12 07:46:00,
2013-09-12 03:49:00,78.0,76.1,29.94,SE,127,1.0,1.0,94,0.00,,FEW,0.66,0.00,VWS V14.01,2013-09-12 07:49:00,
2013-09-12 03:50:00,78.0,76.1,29.94,SE,127,0.0,2.0,94,0.00,,FEW,0.66,0.00,VWS V14.01,2013-09-12 07:50:00,
2013-09-12 03:51:00,78.0,76.1,29.94,SE,127,0.0,2.0,94,0.00,,FEW,0.66,0.00,VWS V14.01,2013-09-12 07:51:00,
2013-09-12 03:54:00,78.0,76.1,29.94,SE,127,1.0,1.0,94,0.00,,FEW,0.66,0.00,VWS V14.01,2013-09-12 07:54:00,
2013-09-12 03:55:00,78.0,76.1,29.94,SE,127,0.0,1.0,94,0.00,,FEW,0.66,0.00,VWS V14.01,2013-09-12 07:55:00,
2013-09-12 03:56:00,78.0,76.1,29.94,SE,127,0.0,1.0,94,0.00,,FEW,0.66,0.00,VWS V14.01,2013-09-12 07:56:00,
2013-09-12 03:59:00,78.1,76.6,29.94,ESE,121,0.0,3.0,95,0.00,,FEW,0.66,0.00,VWS V14.01,2013-09-12 07:59:00,
2013-09-12 04:00:00,78.1,76.6,29.94,ESE,121,0.0,3.0,95,0.00,,FEW,0.66,0.00,VWS V14.01,2013-09-12 08:00:00,
2013-09-12 04:01:00,78.1,76.6,29.94,ESE,121,0.0,3.0,95,0.00,,FEW,0.66,0.00,VWS V14.01,2013-09-12 08:01:00,
2013-09-12 04:02:00,78.2,76.7,29.94,ESE,121,0.0,3.0,95,0.00,,FEW,0.66,0.00,VWS V14.01,2013-09-12 08:02:00,
2013-09-12 04:04:00,78.2,76.7,29.94,ESE,115,1.0,2.0,95,0.00,,FEW,0.66,0.00,VWS V14.01,2013-09-12 08:04:00,
2013-09-12 04:06:00,78.3,76.8,29.94,ESE,114,0.0,2.0,95,0.00,,FEW,0.66,0.00,VWS V14.01,2013-09-12 08:06:00,
2013-09-12 04:07:00,78.3,76.8,29.94,ESE,114,1.0,2.0,95,0.00,,FEW,0.66,0.00,VWS V14.01,2013-09-12 08:07:00,
2013-09-12 04:09:00,78.4,76.8,29.94,East,92,1.0,2.0,95,0.00,,FEW,0.66,0.00,VWS V14.01,2013-09-12 08:09:00,
2013-09-12 04:10:00,78.4,76.8,29.94,East,88,0.0,2.0,95,0.00,,FEW,0.66,0.00,VWS V14.01,2013-09-12 08:10:00,
2013-09-12 04:11:00,78.4,76.8,29.94,East,92,0.0,2.0,95,0.00,,FEW,0.66,0.00,VWS V14.01,2013-09-12 08:11:00,
2013-09-12 04:12:00,78.4,76.8,29.94,East,92,0.0,2.0,95,0.00,,FEW,0.66,0.00,VWS V14.01,2013-09-12 08:12:00,
2013-09-12 04:14:00,78.4,76.8,29.94,East,87,0.0,1.0,95,0.00,,FEW,0.66,0.00,VWS V14.01,2013-09-12 08:14:00,
2013-09-12 04:16:00,78.5,76.9,29.94,East,87,0.0,2.0,95,0.00,,FEW,0.66,0.00,VWS V14.01,2013-09-12 08:16:00,
2013-09-12 04:17:00,78.5,76.9,29.94,NE,36,0.0,2.0,95,0.00,,FEW,0.66,0.00,VWS V14.01,2013-09-12 08:17:00,
2013-09-12 04:18:00,78.5,76.9,29.93,NNE,20,0.0,2.0,95,0.00,,FEW,0.66,0.00,VWS V14.01,2013-09-12 08:18:00,
2013-09-12 04:20:00,78.6,77.1,29.93,NNE,30,0.0,2.0,95,0.00,,FEW,0.66,0.00,VWS V14.01,2013-09-12 08:20:00,
2013-09-12 04:21:00,78.6,77.1,29.93,NE,41,0.0,2.0,95,0.00,,FEW,0.66,0.00,VWS V14.01,2013-09-12 08:21:00,
2013-09-12 04:22:00,78.7,77.2,29.93,NE,41,1.0,2.0,95,0.00,,FEW,0.66,0.00,VWS V14.01,2013-09-12 08:22:00,
2013-09-12 04:23:00,78.7,77.2,29.93,NE,41,1.0,2.0,95,0.00,,FEW,0.66,0.00,VWS V14.01,2013-09-12 08:23:00,
2013-09-12 04:25:00,78.7,77.2,29.93,NE,41,0.0,1.0,95,0.00,,FEW,0.66,0.00,VWS V14.01,2013-09-12 08:25:00,
2013-09-12 04:26:00,78.7,77.2,29.93,NE,41,0.0,1.0,95,0.00,,FEW,0.66,0.00,VWS V14.01,2013-09-12 08:26:00,
2013-09-12 04:27:00,78.7,77.2,29.93,NE,41,1.0,1.0,95,0.00,,FEW,0.66,0.00,VWS V14.01,2013-09-12 08:27:00,
2013-09-12 04:29:00,78.7,77.2,29.93,NE,41,0.0,1.0,95,0.00,,FEW,0.66,0.00,VWS V14.01,2013-09-12 08:29:00,
2013-09-12 04:30:00,78.7,77.2,29.93,NE,41,0.0,2.0,95,0.00,,FEW,0.66,0.00,VWS V14.01,2013-09-12 08:30:00,
2013-09-12 04:31:00,78.7,77.2,29.93,NE,41,0.0,2.0,95,0.00,,FEW,0.66,0.00,VWS V14.01,2013-09-12 08:31:00,
2013-09-12 04:32:00,78.7,77.2,29.93,NE,41,0.0,2.0,95,0.00,,FEW,0.66,0.00,VWS V14.01,2013-09-12 08:32:00,
2013-09-12 04:34:00,78.7,77.2,29.93,NE,41,0.0,1.0,95,0.00,,FEW,0.66,0.00,VWS V14.01,2013-09-12 08:34:00,
2013-09-12 04:35:00,78.7,77.2,29.93,NE,41,0.0,1.0,95,0.00,,FEW,0.66,0.00,VWS V14.01,2013-09-12 08:35:00,
2013-09-12 04:36:00,78.7,77.2,29.93,NE,41,0.0,1.0,95,0.00,,FEW,0.66,0.00,VWS V14.01,2013-09-12 08:36:00,
2013-09-12 04:37:00,78.7,77.2,29.93,NE,41,0.0,1.0,95,0.00,,FEW,0.66,0.00,VWS V14.01,2013-09-12 08:37:00,
2013-09-12 04:38:00,78.7,77.2,29.93,NE,41,0.0,1.0,95,0.00,,FEW,0.66,0.00,VWS V14.01,2013-09-12 08:38:00,
2013-09-12 04:40:00,78.7,77.2,29.93,NE,41,0.0,1.0,95,0.00,,FEW,0.66,0.00,VWS V14.01,2013-09-12 08:40:00,
2013-09-12 04:41:00,78.7,77.2,29.93,NE,41,0.0,1.0,95,0.00,,FEW,0.66,0.00,VWS V14.01,2013-09-12 08:41:00,
2013-09-12 04:42:00,78.7,77.2,29.93,NE,41,0.0,1.0,95,0.00,,FEW,0.66,0.00,VWS V14.01,2013-09-12 08:42:00,
2013-09-12 04:43:00,78.7,77.2,29.93,NE,41,0.0,0.0,95,0.00,,FEW,0.66,0.00,VWS V14.01,2013-09-12 08:43:00,
2013-09-12 04:45:00,78.7,77.2,29.93,NE,41,0.0,0.0,95,0.00,,FEW,0.66,0.00,VWS V14.01,2013-09-12 08:45:00,
2013-09-12 04:46:00,78.7,77.2,29.93,NE,41,0.0,0.0,95,0.00,,FEW,0.66,0.00,VWS V14.01,2013-09-12 08:46:00,
2013-09-12 04:47:00,78.7,77.2,29.93,NE,41,0.0,0.0,95,0.00,,FEW,0.66,0.00,VWS V14.01,2013-09-12 08:47:00,
2013-09-12 04:49:00,78.7,77.2,29.93,NE,41,0.0,0.0,95,0.00,,FEW,0.66,0.00,VWS V14.01,2013-09-12 08:49:00,
2013-09-12 04:50:00,78.8,77.2,29.93,NE,41,0.0,0.0,95,0.00,,FEW,0.66,0.00,VWS V14.01,2013-09-12 08:50:00,
2013-09-12 04:51:00,78.8,77.2,29.93,NE,41,0.0,0.0,95,0.00,,FEW,0.66,0.00,VWS V14.01,2013-09-12 08:51:00,
2013-09-12 04:52:00,78.8,77.2,29.93,NE,41,0.0,0.0,95,0.00,,FEW,0.66,0.00,VWS V14.01,2013-09-12 08:52:00,
2013-09-12 04:54:00,78.8,77.2,29.93,NE,41,0.0,0.0,95,0.00,,FEW,0.66,0.00,VWS V14.01,2013-09-12 08:54:00,
2013-09-12 04:55:00,78.8,77.2,29.93,NE,41,0.0,0.0,95,0.00,,FEW,0.66,0.00,VWS V14.01,2013-09-12 08:55:00,
2013-09-12 04:56:00,78.8,77.2,29.93,NE,41,0.0,0.0,95,0.00,,FEW,0.66,0.00,VWS V14.01,2013-09-12 08:56:00,
2013-09-12 04:57:00,78.8,77.2,29.93,NE,41,0.0,0.0,95,0.00,,FEW,0.66,0.00,VWS V14.01,2013-09-12 08:57:00,
2013-09-12 05:00:00,78.8,77.2,29.93,NE,41,0.0,0.0,95,0.00,,FEW,0.66,0.00,VWS V14.01,2013-09-12 09:00:00,
2013-09-12 05:01:00,78.8,77.2,29.93,NE,41,0.0,0.0,95,0.00,,FEW,0.66,0.00,VWS V14.01,2013-09-12 09:01:00,
2013-09-12 05:02:00,78.8,77.2,29.93,NE,41,0.0,0.0,95,0.00,,FEW,0.66,0.00,VWS V14.01,2013-09-12 09:02:00,
2013-09-12 05:05:00,78.8,77.2,29.93,NE,41,0.0,0.0,95,0.00,,FEW,0.66,0.00,VWS V14.01,2013-09-12 09:05:00,
2013-09-12 05:06:00,78.9,77.3,29.93,NE,41,0.0,0.0,95,0.00,,FEW,0.66,0.00,VWS V14.01,2013-09-12 09:06:00,
2013-09-12 05:07:00,78.9,77.3,29.93,NE,41,0.0,0.0,95,0.00,,FEW,0.66,0.00,VWS V14.01,2013-09-12 09:07:00,
2013-09-12 05:10:00,78.9,77.3,29.93,NE,41,0.0,0.0,95,0.00,,FEW,0.66,0.00,VWS V14.01,2013-09-12 09:10:00,
2013-09-12 05:11:00,78.9,77.3,29.93,NE,41,0.0,0.0,95,0.00,,FEW,0.66,0.00,VWS V14.01,2013-09-12 09:11:00,
2013-09-12 05:12:00,78.9,77.3,29.93,NE,41,0.0,0.0,95,0.00,,FEW,0.66,0.00,VWS V14.01,2013-09-12 09:12:00,
2013-09-12 05:16:00,78.9,77.3,29.93,NE,41,0.0,0.0,95,0.00,,FEW,0.66,0.00,VWS V14.01,2013-09-12 09:16:00,
2013-09-12 05:17:00,78.9,77.3,29.93,NE,41,0.0,0.0,95,0.00,,FEW,0.66,0.00,VWS V14.01,2013-09-12 09:17:00,
2013-09-12 05:20:00,78.9,77.3,29.93,NE,41,0.0,0.0,95,0.00,,FEW,0.66,0.00,VWS V14.01,2013-09-12 09:20:00,
2013-09-12 05:21:00,78.9,77.3,29.93,NE,41,0.0,0.0,95,0.00,,FEW,0.66,0.00,VWS V14.01,2013-09-12 09:21:00,
2013-09-12 05:22:00,78.9,77.3,29.93,NE,41,0.0,0.0,95,0.00,,FEW,0.66,0.00,VWS V14.01,2013-09-12 09:22:00,
2013-09-12 05:23:00,78.9,77.3,29.93,NE,41,0.0,0.0,95,0.00,,FEW,0.66,0.00,VWS V14.01,2013-09-12 09:23:00,
2013-09-12 05:26:00,78.8,77.2,29.93,NE,41,0.0,0.0,95,0.00,,FEW,0.66,0.00,VWS V14.01,2013-09-12 09:26:00,
2013-09-12 05:27:00,78.8,77.2,29.93,NE,41,0.0,0.0,95,0.00,,FEW,0.66,0.00,VWS V14.01,2013-09-12 09:27:00,
2013-09-12 05:28:00,78.8,77.2,29.93,NE,41,0.0,0.0,95,0.00,,FEW,0.66,0.00,VWS V14.01,2013-09-12 09:28:00,
2013-09-12 05:30:00,78.8,77.2,29.93,NE,41,0.0,0.0,95,0.00,,FEW,0.66,0.00,VWS V14.01,2013-09-12 09:30:00,
2013-09-12 05:31:00,78.8,77.2,29.93,NE,41,0.0,0.0,95,0.00,,FEW,0.66,0.00,VWS V14.01,2013-09-12 09:31:00,
2013-09-12 05:32:00,78.8,77.2,29.93,NE,41,0.0,0.0,95,0.00,,FEW,0.66,0.00,VWS V14.01,2013-09-12 09:32:00,
2013-09-12 05:33:00,78.8,77.2,29.93,NE,41,0.0,0.0,95,0.00,,FEW,0.66,0.00,VWS V14.01,2013-09-12 09:33:00,
2013-09-12 05:36:00,78.8,77.2,29.93,NE,41,0.0,0.0,95,0.00,,FEW,0.66,0.00,VWS V14.01,2013-09-12 09:36:00,
2013-09-12 05:37:00,78.8,77.2,29.93,NE,41,0.0,0.0,95,0.00,,FEW,0.66,0.00,VWS V14.01,2013-09-12 09:37:00,
2013-09-12 05:38:00,78.8,77.2,29.93,NE,41,0.0,0.0,95,0.00,,FEW,0.66,0.00,VWS V14.01,2013-09-12 09:38:00,
2013-09-12 05:39:00,78.7,77.2,29.93,NE,41,0.0,0.0,95,0.00,,FEW,0.66,0.00,VWS V14.01,2013-09-12 09:39:00,
2013-09-12 05:40:00,78.7,77.2,29.93,NE,41,0.0,0.0,95,0.00,,FEW,0.66,0.00,VWS V14.01,2013-09-12 09:40:00,
2013-09-12 05:41:00,78.7,77.2,29.93,NE,41,0.0,0.0,95,0.00,,FEW,0.66,0.00,VWS V14.01,2013-09-12 09:41:00,
2013-09-12 05:42:00,78.7,77.2,29.93,NE,41,0.0,0.0,95,0.00,,FEW,0.66,0.00,VWS V14.01,2013-09-12 09:42:00,
2013-09-12 05:43:00,78.7,77.2,29.93,NE,41,0.0,0.0,95,0.00,,FEW,0.66,0.00,VWS V14.01,2013-09-12 09:43:00,
2013-09-12 05:46:00,78.7,77.2,29.93,NE,41,0.0,0.0,95,0.00,,FEW,0.66,0.00,VWS V14.01,2013-09-12 09:46:00,
2013-09-12 05:47:00,78.7,77.2,29.93,NE,41,0.0,0.0,95,0.00,,FEW,0.66,0.00,VWS V14.01,2013-09-12 09:47:00,
2013-09-12 05:48:00,78.7,77.2,29.93,NE,41,0.0,0.0,95,0.00,,FEW,0.66,0.00,VWS V14.01,2013-09-12 09:48:00,
2013-09-12 05:50:00,78.8,77.2,29.93,NE,41,0.0,0.0,95,0.00,,FEW,0.66,0.00,VWS V14.01,2013-09-12 09:50:00,
2013-09-12 05:51:00,78.8,77.2,29.93,NE,41,0.0,0.0,95,0.00,,FEW,0.66,0.00,VWS V14.01,2013-09-12 09:51:00,
2013-09-12 05:52:00,78.8,77.2,29.93,NE,41,0.0,0.0,95,0.00,,FEW,0.66,0.00,VWS V14.01,2013-09-12 09:52:00,
2013-09-12 05:53:00,78.8,77.2,29.93,NE,41,0.0,0.0,95,0.00,,FEW,0.66,0.00,VWS V14.01,2013-09-12 09:53:00,
2013-09-12 05:54:00,78.8,77.2,29.93,NE,41,0.0,0.0,95,0.00,,FEW,0.66,0.00,VWS V14.01,2013-09-12 09:54:00,
2013-09-12 05:56:00,78.9,77.3,29.93,NE,48,1.0,2.0,95,0.00,,FEW,0.66,0.00,VWS V14.01,2013-09-12 09:56:00,
2013-09-12 05:57:00,78.8,77.2,29.93,NE,48,0.0,2.0,95,0.00,,FEW,0.66,0.00,VWS V14.01,2013-09-12 09:57:00,
2013-09-12 05:58:00,78.8,77.2,29.93,NE,48,0.0,2.0,95,0.00,,FEW,0.66,0.00,VWS V14.01,2013-09-12 09:58:00,
2013-09-12 05:59:00,78.8,77.2,29.93,NE,48,0.0,2.0,95,0.00,,FEW,0.66,0.00,VWS V14.01,2013-09-12 09:59:00,
2013-09-12 06:00:00,78.8,77.2,29.93,NE,48,0.0,2.0,95,0.00,,FEW,0.66,0.00,VWS V14.01,2013-09-12 10:00:00,
2013-09-12 06:01:00,78.8,77.2,29.93,NE,48,0.0,2.0,95,0.00,,FEW,0.66,0.00,VWS V14.01,2013-09-12 10:01:00,
2013-09-12 06:02:00,78.8,77.2,29.93,NE,48,0.0,2.0,95,0.00,,FEW,0.66,0.00,VWS V14.01,2013-09-12 10:02:00,
2013-09-12 06:03:00,78.8,77.2,29.93,NE,48,0.0,2.0,95,0.00,,FEW,0.66,0.00,VWS V14.01,2013-09-12 10:03:00,
2013-09-12 06:04:00,78.8,77.2,29.93,NE,48,0.0,0.0,95,0.00,,FEW,0.66,0.00,VWS V14.01,2013-09-12 10:04:00,
2013-09-12 06:06:00,78.9,77.3,29.93,NE,48,0.0,0.0,95,0.00,,FEW,0.66,0.00,VWS V14.01,2013-09-12 10:06:00,
2013-09-12 06:07:00,78.9,77.3,29.93,NE,48,1.0,1.0,95,0.00,,FEW,0.66,0.00,VWS V14.01,2013-09-12 10:07:00,
2013-09-12 06:08:00,78.9,77.3,29.93,NE,48,0.0,1.0,95,0.00,,FEW,0.66,0.00,VWS V14.01,2013-09-12 10:08:00,
2013-09-12 06:10:00,78.9,77.3,29.93,NE,48,0.0,1.0,95,0.00,,FEW,0.66,0.00,VWS V14.01,2013-09-12 10:10:00,
2013-09-12 06:11:00,78.9,77.3,29.93,NE,48,0.0,1.0,95,0.00,,FEW,0.66,0.00,VWS V14.01,2013-09-12 10:11:00,
2013-09-12 06:13:00,79.0,77.4,29.93,NE,48,0.0,1.0,95,0.00,,FEW,0.66,0.00,VWS V14.01,2013-09-12 10:13:00,
2013-09-12 06:14:00,79.0,77.4,29.93,NE,48,0.0,0.0,95,0.00,,FEW,0.66,0.00,VWS V14.01,2013-09-12 10:14:00,
2013-09-12 06:15:00,79.0,77.4,29.93,NE,48,0.0,0.0,95,0.00,,FEW,0.66,0.00,VWS V14.01,2013-09-12 10:15:00,
2013-09-12 06:16:00,79.0,77.4,29.93,NE,48,0.0,0.0,95,0.00,,FEW,0.66,0.00,VWS V14.01,2013-09-12 10:16:00,
2013-09-12 06:18:00,79.0,77.4,29.94,NE,48,0.0,0.0,95,0.00,,FEW,0.66,0.00,VWS V14.01,2013-09-12 10:18:00,
2013-09-12 06:19:00,79.0,77.4,29.94,NE,48,0.0,0.0,95,0.00,,FEW,0.66,0.00,VWS V14.01,2013-09-12 10:19:00,
2013-09-12 06:20:00,79.0,77.4,29.94,NE,48,0.0,1.0,95,0.00,,FEW,0.66,0.00,VWS V14.01,2013-09-12 10:20:00,
2013-09-12 06:21:00,79.1,77.6,29.94,NE,48,0.0,0.0,95,0.00,,FEW,0.66,0.00,VWS V14.01,2013-09-12 10:21:00,
2013-09-12 06:23:00,79.0,77.4,29.94,NE,48,0.0,0.0,95,0.00,,FEW,0.66,0.00,VWS V14.01,2013-09-12 10:23:00,
2013-09-12 06:24:00,78.9,77.3,29.94,NE,48,0.0,0.0,95,0.00,,FEW,0.66,0.00,VWS V14.01,2013-09-12 10:24:00,
2013-09-12 06:26:00,78.8,77.2,29.94,NE,48,0.0,0.0,95,0.00,,FEW,0.66,0.00,VWS V14.01,2013-09-12 10:26:00,
2013-09-12 06:28:00,78.7,76.8,29.94,NE,48,0.0,1.0,94,0.00,,FEW,0.66,0.00,VWS V14.01,2013-09-12 10:28:00,
2013-09-12 06:29:00,78.7,76.8,29.94,NE,48,0.0,1.0,94,0.00,,FEW,0.66,0.00,VWS V14.01,2013-09-12 10:29:00,
2013-09-12 06:30:00,78.7,76.8,29.94,NE,48,1.0,1.0,94,0.00,,FEW,0.66,0.00,VWS V14.01,2013-09-12 10:30:00,
2013-09-12 06:31:00,78.6,76.7,29.94,NE,48,0.0,1.0,94,0.00,,FEW,0.66,0.00,VWS V14.01,2013-09-12 10:31:00,
2013-09-12 06:33:00,78.5,76.6,29.94,ENE,73,0.0,0.0,94,0.00,,FEW,0.66,0.00,VWS V14.01,2013-09-12 10:33:00,
2013-09-12 06:34:00,78.5,76.6,29.94,ENE,73,0.0,0.0,94,0.00,,FEW,0.66,0.00,VWS V14.01,2013-09-12 10:34:00,
2013-09-12 06:35:00,78.5,76.6,29.94,ENE,73,0.0,0.0,94,0.00,,FEW,0.66,0.00,VWS V14.01,2013-09-12 10:35:00,
2013-09-12 06:36:00,78.5,76.6,29.94,ENE,73,0.0,1.0,94,0.00,,FEW,0.66,0.00,VWS V14.01,2013-09-12 10:36:00,
2013-09-12 06:38:00,78.5,76.6,29.94,ENE,73,1.0,1.0,94,0.00,,FEW,0.66,0.00,VWS V14.01,2013-09-12 10:38:00,
2013-09-12 06:39:00,78.4,76.5,29.94,ENE,73,0.0,1.0,94,0.00,,FEW,0.66,0.00,VWS V14.01,2013-09-12 10:39:00,
2013-09-12 06:40:00,78.5,76.6,29.94,ENE,73,0.0,1.0,94,0.00,,FEW,0.66,0.00,VWS V14.01,2013-09-12 10:40:00,
2013-09-12 06:41:00,78.5,76.6,29.94,ENE,73,0.0,1.0,94,0.00,,FEW,0.66,0.00,VWS V14.01,2013-09-12 10:41:00,
2013-09-12 06:43:00,78.5,76.9,29.94,ENE,73,0.0,0.0,95,0.00,,FEW,0.66,0.00,VWS V14.01,2013-09-12 10:43:00,
2013-09-12 06:44:00,78.5,76.9,29.94,ENE,73,0.0,0.0,95,0.00,,FEW,0.66,0.00,VWS V14.01,2013-09-12 10:44:00,
2013-09-12 06:45:00,78.5,76.9,29.94,ENE,73,0.0,0.0,95,0.00,,FEW,0.66,0.00,VWS V14.01,2013-09-12 10:45:00,
2013-09-12 06:47:00,78.5,76.6,29.94,ENE,73,0.0,2.0,94,0.00,,FEW,0.66,0.00,VWS V14.01,2013-09-12 10:47:00,
2013-09-12 06:49:00,78.5,76.6,29.94,ENE,73,0.0,2.0,94,0.00,,FEW,0.66,0.00,VWS V14.01,2013-09-12 10:49:00,
2013-09-12 06:50:00,78.5,76.6,29.94,ENE,73,0.0,2.0,94,0.00,,FEW,0.66,0.00,VWS V14.01,2013-09-12 10:50:00,
2013-09-12 06:51:00,78.5,76.6,29.94,ENE,73,0.0,2.0,94,0.00,,FEW,0.66,0.00,VWS V14.01,2013-09-12 10:51:00,
2013-09-12 06:52:00,78.4,76.5,29.94,ENE,73,0.0,2.0,94,0.00,,FEW,0.66,0.00,VWS V14.01,2013-09-12 10:52:00,
2013-09-12 06:54:00,78.4,76.5,29.94,ENE,73,0.0,0.0,94,0.00,,FEW,0.66,0.00,VWS V14.01,2013-09-12 10:54:00,
2013-09-12 06:55:00,78.4,76.5,29.94,ENE,73,2.0,2.0,94,0.00,,FEW,0.66,0.00,VWS V14.01,2013-09-12 10:55:00,
2013-09-12 06:56:00,78.4,76.5,29.94,ENE,73,0.0,2.0,94,0.00,,FEW,0.66,0.00,VWS V14.01,2013-09-12 10:56:00,
2013-09-12 06:57:00,78.4,76.5,29.94,ENE,73,0.0,2.0,94,0.00,,FEW,0.66,0.00,VWS V14.01,2013-09-12 10:57:00,
2013-09-12 06:59:00,78.4,76.5,29.94,ENE,73,0.0,2.0,94,0.00,,FEW,0.66,0.00,VWS V14.01,2013-09-12 10:59:00,
2013-09-12 07:00:00,78.4,76.5,29.94,ENE,73,0.0,2.0,94,0.00,,FEW,0.66,0.00,VWS V14.01,2013-09-12 11:00:00,
2013-09-12 07:01:00,78.4,76.5,29.94,ENE,73,2.0,2.0,94,0.00,,FEW,0.66,0.00,VWS V14.01,2013-09-12 11:01:00,
2013-09-12 07:02:00,78.4,76.5,29.94,ENE,73,0.0,2.0,94,0.00,,FEW,0.66,0.00,VWS V14.01,2013-09-12 11:02:00,
2013-09-12 07:04:00,78.4,76.5,29.94,ENE,73,0.0,1.0,94,0.00,,FEW,0.66,0.00,VWS V14.01,2013-09-12 11:04:00,
2013-09-12 07:05:00,78.4,76.5,29.94,ENE,64,2.0,2.0,94,0.00,,FEW,0.66,0.00,VWS V14.01,2013-09-12 11:05:00,
2013-09-12 07:06:00,78.4,76.5,29.94,NE,55,3.0,3.0,94,0.00,,FEW,0.66,0.00,VWS V14.01,2013-09-12 11:06:00,
2013-09-12 07:07:00,78.4,76.5,29.94,NE,55,1.0,3.0,94,0.00,,FEW,0.66,0.00,VWS V14.01,2013-09-12 11:07:00,
2013-09-12 07:09:00,78.4,76.5,29.94,NNE,23,3.0,5.0,94,0.00,,FEW,0.66,0.00,VWS V14.01,2013-09-12 11:09:00,
2013-09-12 07:10:00,78.5,76.6,29.94,NNE,21,3.0,5.0,94,0.00,,FEW,0.66,0.00,VWS V14.01,2013-09-12 11:10:00,
2013-09-12 07:11:00,78.6,77.1,29.94,NNE,29,3.0,10.0,95,0.00,,FEW,0.66,0.00,VWS V14.01,2013-09-12 11:11:00,
2013-09-12 07:12:00,78.8,77.2,29.94,NNE,26,4.0,10.0,95,0.00,,FEW,0.66,0.00,VWS V14.01,2013-09-12 11:12:00,
2013-09-12 07:13:00,78.9,77.3,29.94,North,5,5.0,10.0,95,0.01,,FEW,0.67,0.00,VWS V14.01,2013-09-12 11:13:00,
2013-09-12 07:14:00,79.1,77.6,29.94,NE,44,3.0,8.0,95,0.01,,FEW,0.67,0.00,VWS V14.01,2013-09-12 11:14:00,
2013-09-12 07:15:00,79.1,77.6,29.94,NE,38,6.0,8.0,95,0.01,,FEW,0.67,0.00,VWS V14.01,2013-09-12 11:15:00,
2013-09-12 07:16:00,79.2,77.7,29.94,NE,37,5.0,8.0,95,0.01,,FEW,0.67,0.00,VWS V14.01,2013-09-12 11:16:00,
2013-09-12 07:17:00,79.3,77.8,29.94,NE,42,2.0,8.0,95,0.01,,FEW,0.67,5.00,VWS V14.01,2013-09-12 11:17:00,
2013-09-12 07:18:00,79.3,77.4,29.94,NNW,342,10.0,10.0,94,0.01,,FEW,0.67,5.00,VWS V14.01,2013-09-12 11:18:00,
2013-09-12 07:20:00,79.3,77.4,29.94,ENE,59,5.0,10.0,94,0.01,,FEW,0.67,7.00,VWS V14.01,2013-09-12 11:20:00,
2013-09-12 07:21:00,79.4,77.5,29.94,NNE,28,3.0,10.0,94,0.01,,FEW,0.67,7.00,VWS V14.01,2013-09-12 11:21:00,
2013-09-12 07:22:00,79.4,77.5,29.94,NNE,28,3.0,10.0,94,0.01,,FEW,0.67,9.00,VWS V14.01,2013-09-12 11:22:00,
2013-09-12 07:25:00,79.4,77.5,29.94,NE,40,4.0,6.0,94,0.01,,FEW,0.67,12.00,VWS V14.01,2013-09-12 11:25:00,
2013-09-12 07:26:00,79.3,77.4,29.94,NE,40,3.0,7.0,94,0.01,,FEW,0.67,12.00,VWS V14.01,2013-09-12 11:26:00,
2013-09-12 07:27:00,79.3,77.4,29.94,NE,40,4.0,7.0,94,0.01,,FEW,0.67,12.00,VWS V14.01,2013-09-12 11:27:00,
2013-09-12 07:30:00,79.4,77.5,29.94,NE,35,3.0,8.0,94,0.01,,FEW,0.67,16.00,VWS V14.01,2013-09-12 11:30:00,
2013-09-12 07:31:00,79.4,77.5,29.94,NE,34,4.0,8.0,94,0.01,,FEW,0.67,18.00,VWS V14.01,2013-09-12 11:31:00,
2013-09-12 07:32:00,79.4,77.5,29.94,NE,48,1.0,8.0,94,0.01,,FEW,0.67,19.00,VWS V14.01,2013-09-12 11:32:00,
2013-09-12 07:35:00,79.3,77.4,29.95,NNE,29,1.0,8.0,94,0.01,,FEW,0.67,23.00,VWS V14.01,2013-09-12 11:35:00,
2013-09-12 07:36:00,79.3,77.4,29.95,NE,36,2.0,8.0,94,0.01,,FEW,0.67,25.00,VWS V14.01,2013-09-12 11:36:00,
2013-09-12 07:37:00,79.3,77.4,29.95,North,5,7.0,8.0,94,0.01,,FEW,0.67,26.00,VWS V14.01,2013-09-12 11:37:00,
2013-09-12 07:40:00,79.4,77.5,29.95,NE,49,3.0,8.0,94,0.01,,FEW,0.67,28.00,VWS V14.01,2013-09-12 11:40:00,
2013-09-12 07:41:00,79.4,77.5,29.95,NE,36,3.0,8.0,94,0.01,,FEW,0.67,28.00,VWS V14.01,2013-09-12 11:41:00,
2013-09-12 07:43:00,79.3,77.4,29.95,ENE,64,4.0,8.0,94,0.01,,FEW,0.67,30.00,VWS V14.01,2013-09-12 11:43:00,
2013-09-12 07:45:00,79.4,77.5,29.95,NE,44,4.0,6.0,94,0.01,,FEW,0.67,32.00,VWS V14.01,2013-09-12 11:45:00,
2013-09-12 07:46:00,79.4,77.5,29.95,NNE,33,2.0,6.0,94,0.01,,FEW,0.67,32.00,VWS V14.01,2013-09-12 11:46:00,
2013-09-12 07:48:00,79.4,77.5,29.96,NNE,24,3.0,7.0,94,0.01,,FEW,0.67,35.00,VWS V14.01,2013-09-12 11:48:00,
2013-09-12 07:49:00,79.4,77.5,29.96,NE,53,6.0,7.0,94,0.01,,FEW,0.67,35.00,VWS V14.01,2013-09-12 11:49:00,
2013-09-12 07:50:00,79.4,77.5,29.96,NE,49,2.0,7.0,94,0.01,,FEW,0.67,37.00,VWS V14.01,2013-09-12 11:50:00,
2013-09-12 07:51:00,79.4,77.5,29.96,NNE,31,2.0,7.0,94,0.01,,FEW,0.67,37.00,VWS V14.01,2013-09-12 11:51:00,
2013-09-12 07:53:00,79.4,77.5,29.96,NE,40,3.0,7.0,94,0.01,,FEW,0.67,39.00,VWS V14.01,2013-09-12 11:53:00,
2013-09-12 07:55:00,79.5,77.6,29.96,NNE,30,2.0,6.0,94,0.01,,FEW,0.67,39.00,VWS V14.01,2013-09-12 11:55:00,
2013-09-12 07:56:00,79.5,77.6,29.96,NE,38,1.0,6.0,94,0.01,,FEW,0.67,40.00,VWS V14.01,2013-09-12 11:56:00,
2013-09-12 07:58:00,79.6,77.7,29.96,NE,53,3.0,6.0,94,0.01,,FEW,0.67,42.00,VWS V14.01,2013-09-12 11:58:00,
2013-09-12 08:00:00,79.6,77.7,29.96,NE,54,3.0,6.0,94,0.01,,FEW,0.67,42.00,VWS V14.01,2013-09-12 12:00:00,
2013-09-12 08:01:00,79.6,77.7,29.96,NNE,15,2.0,6.0,94,0.01,,FEW,0.67,42.00,VWS V14.01,2013-09-12 12:01:00,
2013-09-12 08:02:00,79.6,77.7,29.96,NNE,15,4.0,6.0,94,0.01,,FEW,0.67,44.00,VWS V14.01,2013-09-12 12:02:00,
2013-09-12 08:03:00,79.6,77.7,29.96,NNE,29,3.0,6.0,94,0.01,,FEW,0.67,44.00,VWS V14.01,2013-09-12 12:03:00,
2013-09-12 08:05:00,79.7,77.8,29.96,NNE,33,5.0,7.0,94,0.01,,FEW,0.67,44.00,VWS V14.01,2013-09-12 12:05:00,
2013-09-12 08:06:00,79.7,77.8,29.96,ENE,68,2.0,7.0,94,0.01,,FEW,0.67,46.00,VWS V14.01,2013-09-12 12:06:00,
2013-09-12 08:07:00,79.7,77.8,29.96,ENE,74,2.0,7.0,94,0.01,,FEW,0.67,46.00,VWS V14.01,2013-09-12 12:07:00,
2013-09-12 08:08:00,79.7,77.8,29.96,NNE,30,3.0,7.0,94,0.01,,FEW,0.67,46.00,VWS V14.01,2013-09-12 12:08:00,
2013-09-12 08:10:00,79.7,77.5,29.96,NE,36,6.0,7.0,93,0.01,,FEW,0.67,47.00,VWS V14.01,2013-09-12 12:10:00,
2013-09-12 08:11:00,79.7,77.5,29.96,NE,34,4.0,8.0,93,0.01,,FEW,0.67,47.00,VWS V14.01,2013-09-12 12:11:00,
2013-09-12 08:12:00,79.7,77.5,29.96,NE,44,1.0,8.0,93,0.01,,FEW,0.67,47.00,VWS V14.01,2013-09-12 12:12:00,
2013-09-12 08:13:00,79.7,77.5,29.96,NE,46,2.0,8.0,93,0.01,,FEW,0.67,49.00,VWS V14.01,2013-09-12 12:13:00,
2013-09-12 08:15:00,79.8,77.6,29.96,ENE,67,2.0,3.0,93,0.00,,FEW,0.67,51.00,VWS V14.01,2013-09-12 12:15:00,
2013-09-12 08:16:00,79.8,77.6,29.96,NE,44,2.0,5.0,93,0.00,,FEW,0.67,51.00,VWS V14.01,2013-09-12 12:16:00,
2013-09-12 08:17:00,79.8,77.6,29.96,NE,55,1.0,5.0,93,0.00,,FEW,0.67,53.00,VWS V14.01,2013-09-12 12:17:00,
2013-09-12 08:18:00,79.8,77.6,29.96,NE,44,2.0,5.0,93,0.00,,FEW,0.67,53.00,VWS V14.01,2013-09-12 12:18:00,
2013-09-12 08:20:00,79.9,77.7,29.96,NE,44,0.0,5.0,93,0.00,,FEW,0.67,56.00,VWS V14.01,2013-09-12 12:20:00,
2013-09-12 08:21:00,79.9,77.7,29.96,NNE,32,1.0,5.0,93,0.00,,FEW,0.67,56.00,VWS V14.01,2013-09-12 12:21:00,
2013-09-12 08:22:00,79.9,77.7,29.96,NNE,32,0.0,5.0,93,0.00,,FEW,0.67,56.00,VWS V14.01,2013-09-12 12:22:00,
2013-09-12 08:23:00,80.0,77.8,29.96,NNE,32,3.0,6.0,93,0.00,,FEW,0.67,58.00,VWS V14.01,2013-09-12 12:23:00,
2013-09-12 08:26:00,80.0,77.8,29.96,ENE,65,3.0,7.0,93,0.00,,FEW,0.67,62.00,VWS V14.01,2013-09-12 12:26:00,
2013-09-12 08:27:00,80.0,77.8,29.96,NE,44,3.0,7.0,93,0.00,,FEW,0.67,65.00,VWS V14.01,2013-09-12 12:27:00,
2013-09-12 08:28:00,80.0,77.8,29.96,ENE,69,1.0,7.0,93,0.00,,FEW,0.67,67.00,VWS V14.01,2013-09-12 12:28:00,
2013-09-12 08:30:00,80.1,77.9,29.97,NE,48,3.0,7.0,93,0.00,,FEW,0.67,74.00,VWS V14.01,2013-09-12 12:30:00,
2013-09-12 08:31:00,80.0,77.8,29.96,East,85,5.0,7.0,93,0.00,,FEW,0.67,70.00,VWS V14.01,2013-09-12 12:31:00,
2013-09-12 08:32:00,80.1,77.9,29.96,ENE,59,2.0,7.0,93,0.00,,FEW,0.67,72.00,VWS V14.01,2013-09-12 12:32:00,
2013-09-12 08:33:00,80.1,77.9,29.97,ENE,59,2.0,7.0,93,0.00,,FEW,0.67,72.00,VWS V14.01,2013-09-12 12:33:00,
2013-09-12 08:34:00,80.1,77.9,29.97,ENE,69,3.0,5.0,93,0.00,,FEW,0.67,76.00,VWS V14.01,2013-09-12 12:34:00,
2013-09-12 08:37:00,80.1,77.9,29.97,ENE,61,4.0,5.0,93,0.00,,FEW,0.67,79.00,VWS V14.01,2013-09-12 12:37:00,
2013-09-12 08:38:00,80.1,77.9,29.97,ENE,59,3.0,5.0,93,0.00,,FEW,0.67,81.00,VWS V14.01,2013-09-12 12:38:00,
2013-09-12 08:39:00,80.1,77.6,29.97,NE,43,2.0,5.0,92,0.00,,FEW,0.67,84.00,VWS V14.01,2013-09-12 12:39:00,
2013-09-12 08:40:00,80.2,78.0,29.97,NE,40,1.0,5.0,93,0.00,,FEW,0.67,88.00,VWS V14.01,2013-09-12 12:40:00,
2013-09-12 08:42:00,80.1,77.9,29.97,NE,38,1.0,5.0,93,0.00,,FEW,0.67,86.00,VWS V14.01,2013-09-12 12:42:00,
2013-09-12 08:43:00,80.2,78.0,29.97,NE,40,1.0,5.0,93,0.00,,FEW,0.67,88.00,VWS V14.01,2013-09-12 12:43:00,
2013-09-12 08:45:00,80.3,78.1,29.97,NE,46,0.0,4.0,93,0.00,,FEW,0.67,91.00,VWS V14.01,2013-09-12 12:45:00,
2013-09-12 08:47:00,80.3,78.1,29.97,NE,42,6.0,6.0,93,0.00,,FEW,0.67,97.00,VWS V14.01,2013-09-12 12:47:00,
2013-09-12 08:48:00,80.3,77.8,29.97,NNE,31,3.0,6.0,92,0.00,,FEW,0.67,97.00,VWS V14.01,2013-09-12 12:48:00,
2013-09-12 08:49:00,80.3,77.8,29.97,NNE,32,0.0,6.0,92,0.00,,FEW,0.67,100.00,VWS V14.01,2013-09-12 12:49:00,
2013-09-12 08:50:00,80.4,78.2,29.97,NNE,32,0.0,6.0,93,0.00,,FEW,0.67,102.00,VWS V14.01,2013-09-12 12:50:00,
2013-09-12 08:52:00,80.4,78.2,29.97,ENE,63,4.0,6.0,93,0.00,,FEW,0.67,105.00,VWS V14.01,2013-09-12 12:52:00,
2013-09-12 08:53:00,80.5,78.0,29.97,NE,55,0.0,6.0,92,0.00,,FEW,0.67,109.00,VWS V14.01,2013-09-12 12:53:00,
2013-09-12 08:55:00,80.5,78.0,29.97,NE,51,1.0,2.0,92,0.00,,FEW,0.67,111.00,VWS V14.01,2013-09-12 12:55:00,
2013-09-12 08:56:00,80.5,78.0,29.97,East,82,2.0,3.0,92,0.00,,FEW,0.67,116.00,VWS V14.01,2013-09-12 12:56:00,
2013-09-12 08:57:00,80.6,78.1,29.97,NNE,28,0.0,6.0,92,0.00,,FEW,0.67,118.00,VWS V14.01,2013-09-12 12:57:00,
2013-09-12 08:58:00,80.6,78.1,29.97,NE,36,1.0,6.0,92,0.00,,FEW,0.67,121.00,VWS V14.01,2013-09-12 12:58:00,
2013-09-12 09:00:00,80.7,78.2,29.97,ENE,59,0.0,6.0,92,0.00,,FEW,0.67,127.00,VWS V14.01,2013-09-12 13:00:00,
2013-09-12 09:01:00,80.7,78.2,29.97,ENE,59,0.0,6.0,92,0.00,,FEW,0.67,128.00,VWS V14.01,2013-09-12 13:01:00,
2013-09-12 09:02:00,80.8,78.3,29.97,NE,53,0.0,6.0,92,0.00,,FEW,0.67,135.00,VWS V14.01,2013-09-12 13:02:00,
2013-09-12 09:03:00,80.9,78.4,29.97,NE,42,3.0,3.0,92,0.00,,FEW,0.67,135.00,VWS V14.01,2013-09-12 13:03:00,
2013-09-12 09:05:00,81.0,78.5,29.97,NE,42,0.0,4.0,92,0.00,,FEW,0.67,142.00,VWS V14.01,2013-09-12 13:05:00,
2013-09-12 09:06:00,81.0,78.5,29.97,NE,53,0.0,4.0,92,0.00,,FEW,0.67,144.00,VWS V14.01,2013-09-12 13:06:00,
2013-09-12 09:07:00,81.1,78.6,29.97,NE,44,1.0,5.0,92,0.00,,FEW,0.67,151.00,VWS V14.01,2013-09-12 13:07:00,
2013-09-12 09:08:00,81.1,78.6,29.97,NE,44,1.0,5.0,92,0.00,,FEW,0.67,153.00,VWS V14.01,2013-09-12 13:08:00,
2013-09-12 09:09:00,81.1,78.6,29.97,NE,44,0.0,5.0,92,0.00,,FEW,0.67,153.00,VWS V14.01,2013-09-12 13:09:00,
2013-09-12 09:10:00,81.1,78.6,29.97,NE,56,2.0,5.0,92,0.00,,FEW,0.67,160.00,VWS V14.01,2013-09-12 13:10:00,
2013-09-12 09:11:00,81.2,78.7,29.97,NNE,24,4.0,5.0,92,0.00,,FEW,0.67,162.00,VWS V14.01,2013-09-12 13:11:00,
2013-09-12 09:12:00,81.2,78.7,29.97,NNE,28,0.0,6.0,92,0.00,,FEW,0.67,163.00,VWS V14.01,2013-09-12 13:12:00,
2013-09-12 09:13:00,81.2,78.7,29.97,ENE,74,1.0,2.0,92,0.00,,FEW,0.67,169.00,VWS V14.01,2013-09-12 13:13:00,
2013-09-12 09:14:00,81.3,78.8,29.97,ENE,71,2.0,3.0,92,0.00,,FEW,0.67,174.00,VWS V14.01,2013-09-12 13:14:00,
2013-09-12 09:16:00,81.3,78.8,29.97,NE,49,3.0,5.0,92,0.00,,FEW,0.67,179.00,VWS V14.01,2013-09-12 13:16:00,
2013-09-12 09:17:00,81.3,78.8,29.97,NE,51,0.0,5.0,92,0.00,,FEW,0.67,181.00,VWS V14.01,2013-09-12 13:17:00,
2013-09-12 09:18:00,81.3,78.8,29.98,NE,35,2.0,5.0,92,0.00,,FEW,0.67,195.00,VWS V14.01,2013-09-12 13:18:00,
2013-09-12 09:20:00,81.5,78.6,29.98,ENE,75,3.0,7.0,91,0.00,,FEW,0.67,186.00,VWS V14.01,2013-09-12 13:20:00,
2013-09-12 09:21:00,81.4,78.5,29.98,NE,52,6.0,7.0,91,0.00,,FEW,0.67,178.00,VWS V14.01,2013-09-12 13:21:00,
2013-09-12 09:22:00,81.4,78.5,29.98,East,80,7.0,7.0,91,0.00,,FEW,0.67,179.00,VWS V14.01,2013-09-12 13:22:00,
2013-09-12 09:23:00,81.5,78.6,29.98,NNE,16,1.0,7.0,91,0.00,,FEW,0.67,186.00,VWS V14.01,2013-09-12 13:23:00,
2013-09-12 09:26:00,81.6,78.7,29.98,NNE,28,3.0,7.0,91,0.00,,FEW,0.67,192.00,VWS V14.01,2013-09-12 13:26:00,
2013-09-12 09:28:00,81.6,78.7,29.98,East,99,6.0,7.0,91,0.00,,FEW,0.67,174.00,VWS V14.01,2013-09-12 13:28:00,
2013-09-12 09:29:00,81.6,78.7,29.98,ENE,57,2.0,7.0,91,0.00,,FEW,0.67,179.00,VWS V14.01,2013-09-12 13:29:00,
2013-09-12 09:30:00,81.6,78.7,29.98,NE,47,1.0,7.0,91,0.00,,FEW,0.67,181.00,VWS V14.01,2013-09-12 13:30:00,
2013-09-12 09:31:00,81.7,78.8,29.98,NE,46,1.0,7.0,91,0.00,,FEW,0.67,176.00,VWS V14.01,2013-09-12 13:31:00,
2013-09-12 09:32:00,81.7,78.8,29.98,NE,46,0.0,7.0,91,0.00,,FEW,0.67,176.00,VWS V14.01,2013-09-12 13:32:00,
2013-09-12 09:33:00,81.8,78.9,29.98,NE,46,0.0,7.0,91,0.00,,FEW,0.67,176.00,VWS V14.01,2013-09-12 13:33:00,
2013-09-12 09:34:00,81.8,78.9,29.98,NE,46,1.0,3.0,91,0.00,,FEW,0.67,179.00,VWS V14.01,2013-09-12 13:34:00,
2013-09-12 09:36:00,81.9,78.7,29.98,ENE,61,1.0,5.0,90,0.00,,FEW,0.67,193.00,VWS V14.01,2013-09-12 13:36:00,
2013-09-12 09:38:00,82.0,78.8,29.98,NE,40,3.0,5.0,90,0.00,,FEW,0.67,209.00,VWS V14.01,2013-09-12 13:38:00,
2013-09-12 09:39:00,82.1,78.9,29.98,East,91,6.0,6.0,90,0.00,,FEW,0.67,258.00,VWS V14.01,2013-09-12 13:39:00,
2013-09-12 09:40:00,82.4,78.8,29.98,NE,36,0.0,6.0,89,0.00,,FEW,0.67,253.00,VWS V14.01,2013-09-12 13:40:00,
2013-09-12 09:41:00,82.2,78.6,29.98,NNE,16,2.0,6.0,89,0.00,,FEW,0.67,264.00,VWS V14.01,2013-09-12 13:41:00,
2013-09-12 09:42:00,82.3,78.7,29.98,East,88,1.0,6.0,89,0.00,,FEW,0.67,264.00,VWS V14.01,2013-09-12 13:42:00,
2013-09-12 09:43:00,82.4,78.8,29.98,NE,36,0.0,6.0,89,0.00,,FEW,0.67,253.00,VWS V14.01,2013-09-12 13:43:00,
2013-09-12 09:44:00,82.5,78.9,29.98,NNE,28,4.0,4.0,89,0.00,,FEW,0.67,250.00,VWS V14.01,2013-09-12 13:44:00,
2013-09-12 09:46:00,82.7,79.1,29.98,NE,39,2.0,5.0,89,0.00,,FEW,0.67,255.00,VWS V14.01,2013-09-12 13:46:00,
2013-09-12 09:47:00,82.7,79.1,29.98,ENE,57,1.0,7.0,89,0.00,,FEW,0.67,234.00,VWS V14.01,2013-09-12 13:47:00,
2013-09-12 09:48:00,82.9,79.3,29.98,ENE,74,3.0,7.0,89,0.00,,FEW,0.67,255.00,VWS V14.01,2013-09-12 13:48:00,
2013-09-12 09:49:00,82.9,79.3,29.98,NE,55,1.0,7.0,89,0.00,,FEW,0.67,250.00,VWS V14.01,2013-09-12 13:49:00,
2013-09-12 09:50:00,82.9,79.3,29.98,NNE,28,5.0,7.0,89,0.00,,FEW,0.67,258.00,VWS V14.01,2013-09-12 13:50:00,
2013-09-12 09:51:00,82.9,79.0,29.98,NE,51,4.0,7.0,88,0.00,,FEW,0.67,209.00,VWS V14.01,2013-09-12 13:51:00,
2013-09-12 09:52:00,82.9,79.0,29.98,ENE,71,2.0,7.0,88,0.00,,FEW,0.67,209.00,VWS V14.01,2013-09-12 13:52:00,
2013-09-12 09:53:00,82.9,79.0,29.98,NNE,31,1.0,7.0,88,0.00,,FEW,0.67,236.00,VWS V14.01,2013-09-12 13:53:00,
2013-09-12 09:54:00,82.9,79.0,29.98,NE,42,2.0,7.0,88,0.00,,FEW,0.67,214.00,VWS V14.01,2013-09-12 13:54:00,
2013-09-12 09:55:00,82.9,79.0,29.98,NE,36,1.0,7.0,88,0.00,,FEW,0.67,267.00,VWS V14.01,2013-09-12 13:55:00,
2013-09-12 09:56:00,82.9,79.0,29.98,ENE,59,0.0,7.0,88,0.00,,FEW,0.67,272.00,VWS V14.01,2013-09-12 13:56:00,
2013-09-12 09:57:00,83.0,79.1,29.98,ENE,59,0.0,7.0,88,0.00,,FEW,0.67,272.00,VWS V14.01,2013-09-12 13:57:00,
2013-09-12 09:58:00,83.0,79.1,29.98,ENE,58,1.0,7.0,88,0.00,,FEW,0.67,315.00,VWS V14.01,2013-09-12 13:58:00,
2013-09-12 09:59:00,83.2,79.3,29.98,ENE,59,0.0,7.0,88,0.00,,FEW,0.67,311.00,VWS V14.01,2013-09-12 13:59:00,
2013-09-12 10:00:00,83.3,79.0,29.98,NE,35,1.0,7.0,87,0.00,,FEW,0.67,334.00,VWS V14.01,2013-09-12 14:00:00,
2013-09-12 10:02:00,83.3,79.4,29.98,NNE,23,4.0,7.0,88,0.00,,FEW,0.67,313.00,VWS V14.01,2013-09-12 14:02:00,
2013-09-12 10:03:00,83.3,79.0,29.98,NE,52,2.0,3.0,87,0.00,,FEW,0.67,394.00,VWS V14.01,2013-09-12 14:03:00,
2013-09-12 10:04:00,83.4,79.1,29.98,NE,38,4.0,5.0,87,0.00,,FEW,0.67,401.00,VWS V14.01,2013-09-12 14:04:00,
2013-09-12 10:05:00,83.6,79.3,29.98,NE,54,2.0,5.0,87,0.00,,FEW,0.67,399.00,VWS V14.01,2013-09-12 14:05:00,
2013-09-12 10:07:00,83.7,79.4,29.98,ENE,59,5.0,5.0,87,0.00,,FEW,0.67,538.00,VWS V14.01,2013-09-12 14:07:00,
2013-09-12 10:08:00,83.9,79.6,29.98,NNE,30,2.0,5.0,87,0.00,,FEW,0.67,550.00,VWS V14.01,2013-09-12 14:08:00,
2013-09-12 10:09:00,84.0,79.7,29.98,East,93,1.0,5.0,87,0.00,,FEW,0.67,548.00,VWS V14.01,2013-09-12 14:09:00,
2013-09-12 10:10:00,84.4,79.4,29.98,East,84,3.0,5.0,85,0.00,,FEW,0.67,519.00,VWS V14.01,2013-09-12 14:10:00,
2013-09-12 10:11:00,84.2,79.6,29.98,ENE,65,1.0,5.0,86,0.00,,FEW,0.67,577.00,VWS V14.01,2013-09-12 14:11:00,
2013-09-12 10:12:00,84.3,79.7,29.98,NE,54,2.0,5.0,86,0.00,,FEW,0.67,548.00,VWS V14.01,2013-09-12 14:12:00,
2013-09-12 10:13:00,84.4,79.4,29.98,East,84,3.0,5.0,85,0.00,,FEW,0.67,519.00,VWS V14.01,2013-09-12 14:13:00,
2013-09-12 10:14:00,84.4,79.4,29.98,NE,53,0.0,4.0,85,0.00,,FEW,0.67,522.00,VWS V14.01,2013-09-12 14:14:00,
2013-09-12 10:16:00,84.6,79.6,29.98,NE,46,4.0,7.0,85,0.00,,FEW,0.67,478.00,VWS V14.01,2013-09-12 14:16:00,
2013-09-12 10:18:00,84.5,79.1,29.98,NE,34,3.0,7.0,84,0.00,,FEW,0.67,543.00,VWS V14.01,2013-09-12 14:18:00,
2013-09-12 10:19:00,84.5,79.1,29.98,NE,50,3.0,7.0,84,0.00,,FEW,0.67,457.00,VWS V14.01,2013-09-12 14:19:00,
2013-09-12 10:20:00,84.5,79.1,29.98,NE,41,3.0,7.0,84,0.00,,FEW,0.67,376.00,VWS V14.01,2013-09-12 14:20:00,
2013-09-12 10:22:00,84.5,79.1,29.98,ENE,64,2.0,7.0,84,0.00,,FEW,0.67,366.00,VWS V14.01,2013-09-12 14:22:00,
2013-09-12 10:23:00,84.6,79.2,29.98,NNE,24,3.0,3.0,84,0.00,,FEW,0.67,376.00,VWS V14.01,2013-09-12 14:23:00,
2013-09-12 10:24:00,84.6,79.6,29.98,NE,37,1.0,3.0,85,0.00,,FEW,0.67,376.00,VWS V14.01,2013-09-12 14:24:00,
2013-09-12 10:25:00,84.6,79.6,29.98,ENE,65,3.0,5.0,85,0.00,,FEW,0.67,434.00,VWS V14.01,2013-09-12 14:25:00,
2013-09-12 10:27:00,84.7,79.3,29.98,NE,39,3.0,7.0,84,0.00,,FEW,0.67,378.00,VWS V14.01,2013-09-12 14:27:00,
2013-09-12 10:28:00,84.6,79.2,29.98,NE,40,2.0,7.0,84,0.00,,FEW,0.67,392.00,VWS V14.01,2013-09-12 14:28:00,
2013-09-12 10:29:00,84.6,79.2,29.98,ENE,67,1.0,7.0,84,0.00,,FEW,0.67,381.00,VWS V14.01,2013-09-12 14:29:00,
2013-09-12 10:30:00,84.6,79.2,29.98,NE,50,0.0,7.0,84,0.00,,FEW,0.67,441.00,VWS V14.01,2013-09-12 14:30:00,
2013-09-12 10:33:00,84.8,79.1,29.98,NE,44,3.0,6.0,83,0.00,,FEW,0.67,577.00,VWS V14.01,2013-09-12 14:33:00,
2013-09-12 10:34:00,84.8,79.1,29.98,ENE,61,2.0,6.0,83,0.00,,FEW,0.67,577.00,VWS V14.01,2013-09-12 14:34:00,
2013-09-12 10:35:00,84.9,79.2,29.98,NE,44,2.0,6.0,83,0.00,,FEW,0.67,506.00,VWS V14.01,2013-09-12 14:35:00,
2013-09-12 10:39:00,85.0,78.9,29.98,NE,51,0.0,7.0,82,0.00,,FEW,0.67,390.00,VWS V14.01,2013-09-12 14:39:00,
2013-09-12 10:40:00,85.0,78.9,29.98,ENE,61,3.0,7.0,82,0.00,,FEW,0.67,362.00,VWS V14.01,2013-09-12 14:40:00,
2013-09-12 10:44:00,84.8,78.7,29.98,ENE,62,1.0,5.0,82,0.00,,FEW,0.67,345.00,VWS V14.01,2013-09-12 14:44:00,
2013-09-12 10:45:00,84.9,78.8,29.98,ENE,61,0.0,5.0,82,0.00,,FEW,0.67,343.00,VWS V14.01,2013-09-12 14:45:00,
2013-09-12 10:49:00,85.0,78.5,29.97,NE,34,0.0,5.0,81,0.00,,FEW,0.67,338.00,VWS V14.01,2013-09-12 14:49:00,
2013-09-12 10:50:00,85.0,78.5,29.97,NE,53,3.0,5.0,81,0.00,,FEW,0.67,338.00,VWS V14.01,2013-09-12 14:50:00,
2013-09-12 10:54:00,85.0,78.1,29.97,East,99,2.0,2.0,80,0.00,,FEW,0.67,348.00,VWS V14.01,2013-09-12 14:54:00,
2013-09-12 10:55:00,85.0,77.8,29.97,ENE,67,0.0,2.0,79,0.00,,FEW,0.67,348.00,VWS V14.01,2013-09-12 14:55:00,
2013-09-12 10:56:00,85.0,78.1,29.97,ENE,76,2.0,2.0,80,0.00,,FEW,0.67,348.00,VWS V14.01,2013-09-12 14:56:00,
2013-09-12 10:59:00,85.1,78.2,29.97,ENE,63,0.0,3.0,80,0.00,,FEW,0.67,348.00,VWS V14.01,2013-09-12 14:59:00,
2013-09-12 11:00:00,85.2,78.3,29.97,ENE,63,0.0,3.0,80,0.00,,FEW,0.67,350.00,VWS V14.01,2013-09-12 15:00:00,
2013-09-12 11:01:00,85.2,78.3,29.97,ENE,63,0.0,3.0,80,0.00,,FEW,0.67,352.00,VWS V14.01,2013-09-12 15:01:00,
2013-09-12 11:04:00,85.4,78.2,29.97,NE,46,1.0,3.0,79,0.00,,FEW,0.67,434.00,VWS V14.01,2013-09-12 15:04:00,
2013-09-12 11:05:00,85.4,78.2,29.97,East,88,1.0,3.0,79,0.00,,FEW,0.67,371.00,VWS V14.01,2013-09-12 15:05:00,
2013-09-12 11:06:00,85.4,78.2,29.97,East,88,0.0,3.0,79,0.00,,FEW,0.67,371.00,VWS V14.01,2013-09-12 15:06:00,
2013-09-12 11:09:00,85.4,77.4,29.97,ENE,59,0.0,3.0,77,0.00,,FEW,0.67,390.00,VWS V14.01,2013-09-12 15:09:00,
2013-09-12 11:10:00,85.4,77.4,29.97,East,79,1.0,3.0,77,0.00,,FEW,0.67,424.00,VWS V14.01,2013-09-12 15:10:00,
2013-09-12 11:11:00,85.4,77.8,29.97,ENE,61,0.0,3.0,78,0.00,,FEW,0.67,424.00,VWS V14.01,2013-09-12 15:11:00,
2013-09-12 11:14:00,85.5,77.5,29.97,ENE,70,1.0,5.0,77,0.00,,FEW,0.67,429.00,VWS V14.01,2013-09-12 15:14:00,
2013-09-12 11:15:00,85.5,77.5,29.97,East,86,3.0,5.0,77,0.00,,FEW,0.67,396.00,VWS V14.01,2013-09-12 15:15:00,
2013-09-12 11:16:00,85.6,78.0,29.97,ENE,62,2.0,5.0,78,0.00,,FEW,0.67,383.00,VWS V14.01,2013-09-12 15:16:00,
2013-09-12 11:20:00,85.5,77.5,29.97,East,80,2.0,5.0,77,0.00,,FEW,0.67,350.00,VWS V14.01,2013-09-12 15:20:00,
2013-09-12 11:21:00,85.4,77.4,29.97,East,88,1.0,5.0,77,0.00,,FEW,0.67,345.00,VWS V14.01,2013-09-12 15:21:00,
2013-09-12 11:25:00,85.3,77.3,29.97,ENE,71,3.0,3.0,77,0.00,,FEW,0.67,343.00,VWS V14.01,2013-09-12 15:25:00,
2013-09-12 11:26:00,85.3,77.3,29.97,NE,34,2.0,5.0,77,0.00,,FEW,0.67,339.00,VWS V14.01,2013-09-12 15:26:00,
2013-09-12 11:27:00,85.2,76.8,29.97,ENE,78,0.0,5.0,76,0.00,,FEW,0.67,338.00,VWS V14.01,2013-09-12 15:27:00,
2013-09-12 11:30:00,85.2,77.2,29.97,ENE,67,3.0,5.0,77,0.00,,FEW,0.67,329.00,VWS V14.01,2013-09-12 15:30:00,
2013-09-12 11:31:00,85.2,77.2,29.97,ENE,68,2.0,5.0,77,0.00,,FEW,0.67,325.00,VWS V14.01,2013-09-12 15:31:00,
2013-09-12 11:32:00,85.2,77.2,29.97,East,91,0.0,5.0,77,0.00,,FEW,0.67,323.00,VWS V14.01,2013-09-12 15:32:00,
2013-09-12 11:33:00,85.2,77.6,29.97,ESE,103,1.0,5.0,78,0.00,,FEW,0.67,320.00,VWS V14.01,2013-09-12 15:33:00,
2013-09-12 11:35:00,85.1,77.5,29.97,East,88,0.0,2.0,78,0.00,,FEW,0.67,313.00,VWS V14.01,2013-09-12 15:35:00,
2013-09-12 11:36:00,85.1,77.5,29.97,East,84,3.0,3.0,78,0.00,,FEW,0.67,313.00,VWS V14.01,2013-09-12 15:36:00,
2013-09-12 11:37:00,85.1,77.5,29.97,ESE,107,1.0,3.0,78,0.00,,FEW,0.67,311.00,VWS V14.01,2013-09-12 15:37:00,
2013-09-12 11:38:00,85.0,77.4,29.97,NNE,15,5.0,5.0,78,0.00,,FEW,0.67,311.00,VWS V14.01,2013-09-12 15:38:00,
2013-09-12 11:40:00,84.9,76.9,29.97,ENE,76,4.0,5.0,77,0.00,,FEW,0.67,315.00,VWS V14.01,2013-09-12 15:40:00,
2013-09-12 11:41:00,84.9,76.9,29.97,NE,39,3.0,5.0,77,0.00,,FEW,0.67,318.00,VWS V14.01,2013-09-12 15:41:00,
2013-09-12 11:42:00,84.9,76.9,29.97,ENE,65,3.0,5.0,77,0.00,,FEW,0.67,323.00,VWS V14.01,2013-09-12 15:42:00,
2013-09-12 11:43:00,84.9,76.9,29.97,ENE,74,2.0,5.0,77,0.00,,FEW,0.67,330.00,VWS V14.01,2013-09-12 15:43:00,
2013-09-12 11:44:00,84.9,76.9,29.97,NE,54,4.0,5.0,77,0.00,,FEW,0.67,336.00,VWS V14.01,2013-09-12 15:44:00,
2013-09-12 11:45:00,84.9,77.3,29.97,ENE,62,3.0,5.0,78,0.00,,FEW,0.67,343.00,VWS V14.01,2013-09-12 15:45:00,
2013-09-12 11:46:00,84.9,77.3,29.97,ENE,57,1.0,5.0,78,0.00,,FEW,0.67,346.00,VWS V14.01,2013-09-12 15:46:00,
2013-09-12 11:47:00,85.0,77.4,29.97,ENE,65,1.0,5.0,78,0.00,,FEW,0.67,348.00,VWS V14.01,2013-09-12 15:47:00,
2013-09-12 11:48:00,85.0,77.4,29.97,NE,51,2.0,5.0,78,0.00,,FEW,0.67,346.00,VWS V14.01,2013-09-12 15:48:00,
2013-09-12 11:49:00,85.1,77.5,29.97,NE,49,4.0,5.0,78,0.00,,FEW,0.67,346.00,VWS V14.01,2013-09-12 15:49:00,
2013-09-12 11:50:00,85.1,77.5,29.97,East,82,1.0,5.0,78,0.00,,FEW,0.67,348.00,VWS V14.01,2013-09-12 15:50:00,
2013-09-12 11:51:00,85.1,77.5,29.97,East,82,0.0,5.0,78,0.00,,FEW,0.67,348.00,VWS V14.01,2013-09-12 15:51:00,
2013-09-12 11:52:00,85.2,77.6,29.97,East,90,2.0,5.0,78,0.00,,FEW,0.67,352.00,VWS V14.01,2013-09-12 15:52:00,
2013-09-12 11:54:00,85.2,77.6,29.97,NE,51,1.0,2.0,78,0.00,,FEW,0.67,364.00,VWS V14.01,2013-09-12 15:54:00,
2013-09-12 11:56:00,85.2,77.9,29.97,ENE,75,3.0,3.0,79,0.00,,FEW,0.67,387.00,VWS V14.01,2013-09-12 15:56:00,
2013-09-12 11:57:00,85.3,77.7,29.97,ESE,103,2.0,5.0,78,0.00,,FEW,0.67,417.00,VWS V14.01,2013-09-12 15:57:00,
2013-09-12 11:59:00,85.3,77.3,29.97,NE,41,1.0,5.0,77,0.00,,FEW,0.67,487.00,VWS V14.01,2013-09-12 15:59:00,
2013-09-12 12:00:00,85.8,78.2,29.96,ENE,74,5.0,5.0,78,0.00,,FEW,0.67,515.00,VWS V14.01,2013-09-12 16:00:00,
2013-09-12 12:01:00,85.5,77.9,29.97,ESE,105,3.0,5.0,78,0.00,,FEW,0.67,529.00,VWS V14.01,2013-09-12 16:01:00,
2013-09-12 12:02:00,85.7,78.1,29.97,SE,130,2.0,5.0,78,0.00,,FEW,0.67,513.00,VWS V14.01,2013-09-12 16:02:00,
2013-09-12 12:03:00,85.8,78.2,29.96,NE,54,1.0,5.0,78,0.00,,FEW,0.67,515.00,VWS V14.01,2013-09-12 16:03:00,
2013-09-12 12:06:00,86.0,78.3,29.96,NNE,16,1.0,5.0,78,0.00,,FEW,0.67,577.00,VWS V14.01,2013-09-12 16:06:00,
2013-09-12 12:07:00,86.3,78.6,29.96,ENE,73,4.0,5.0,78,0.00,,FEW,0.67,578.00,VWS V14.01,2013-09-12 16:07:00,
2013-09-12 12:08:00,86.3,78.6,29.96,NNE,28,2.0,5.0,78,0.00,,FEW,0.67,578.00,VWS V14.01,2013-09-12 16:08:00,
2013-09-12 12:10:00,86.2,78.5,29.96,East,93,2.0,5.0,78,0.00,,FEW,0.67,455.00,VWS V14.01,2013-09-12 16:10:00,
2013-09-12 12:11:00,86.2,78.5,29.96,ENE,66,1.0,5.0,78,0.00,,FEW,0.67,503.00,VWS V14.01,2013-09-12 16:11:00,
2013-09-12 12:12:00,86.2,78.5,29.96,NE,46,2.0,5.0,78,0.00,,FEW,0.67,485.00,VWS V14.01,2013-09-12 16:12:00,
2013-09-12 12:13:00,86.2,78.5,29.96,East,93,2.0,5.0,78,0.00,,FEW,0.67,455.00,VWS V14.01,2013-09-12 16:13:00,
2013-09-12 12:16:00,86.4,79.1,29.96,East,80,0.0,4.0,79,0.00,,FEW,0.67,431.00,VWS V14.01,2013-09-12 16:16:00,
2013-09-12 12:20:00,86.0,78.7,29.96,ENE,69,1.0,5.0,79,0.00,,FEW,0.67,422.00,VWS V14.01,2013-09-12 16:20:00,
2013-09-12 12:23:00,86.0,78.7,29.96,ENE,69,1.0,5.0,79,0.00,,FEW,0.67,422.00,VWS V14.01,2013-09-12 16:23:00,
2013-09-12 12:30:00,85.7,77.3,29.96,ENE,63,3.0,7.0,76,0.00,,FEW,0.67,366.00,VWS V14.01,2013-09-12 16:30:00,
2013-09-12 12:33:00,85.7,77.3,29.96,ENE,63,3.0,7.0,76,0.00,,FEW,0.67,366.00,VWS V14.01,2013-09-12 16:33:00,
2013-09-12 12:40:00,85.8,77.8,29.96,East,79,3.0,8.0,77,0.00,,FEW,0.67,334.00,VWS V14.01,2013-09-12 16:40:00,
2013-09-12 12:43:00,85.8,77.8,29.96,East,79,3.0,8.0,77,0.00,,FEW,0.67,334.00,VWS V14.01,2013-09-12 16:43:00,
2013-09-12 12:50:00,85.8,77.0,29.96,ENE,76,1.0,6.0,75,0.00,,FEW,0.67,366.00,VWS V14.01,2013-09-12 16:50:00,
2013-09-12 12:53:00,85.8,77.0,29.96,ENE,76,1.0,6.0,75,0.00,,FEW,0.67,366.00,VWS V14.01,2013-09-12 16:53:00,
2013-09-12 13:00:00,86.2,76.9,29.96,ENE,57,0.0,5.0,74,0.00,,FEW,0.67,404.00,VWS V14.01,2013-09-12 17:00:00,
2013-09-12 13:03:00,86.2,76.9,29.96,ENE,57,0.0,5.0,74,0.00,,FEW,0.67,404.00,VWS V14.01,2013-09-12 17:03:00,
2013-09-12 13:10:00,86.2,77.3,29.96,ENE,71,1.0,6.0,75,0.00,,FEW,0.67,413.00,VWS V14.01,2013-09-12 17:10:00,
2013-09-12 13:13:00,86.2,77.3,29.96,ENE,71,1.0,6.0,75,0.00,,FEW,0.67,413.00,VWS V14.01,2013-09-12 17:13:00,
2013-09-12 13:20:00,86.2,77.3,29.95,ENE,71,3.0,5.0,75,0.00,,FEW,0.67,448.00,VWS V14.01,2013-09-12 17:20:00,
2013-09-12 13:23:00,86.2,77.3,29.95,ENE,71,3.0,5.0,75,0.00,,FEW,0.67,448.00,VWS V14.01,2013-09-12 17:23:00,
2013-09-12 13:30:00,86.9,78.0,29.95,SE,142,4.0,5.0,75,0.00,,FEW,0.67,381.00,VWS V14.01,2013-09-12 17:30:00,
2013-09-12 13:33:00,86.9,78.0,29.95,SE,142,4.0,5.0,75,0.00,,FEW,0.67,381.00,VWS V14.01,2013-09-12 17:33:00,
2013-09-12 13:40:00,86.6,78.1,29.95,ESE,111,1.0,6.0,76,0.00,,FEW,0.67,378.00,VWS V14.01,2013-09-12 17:40:00,
2013-09-12 13:43:00,86.6,78.1,29.95,ESE,111,1.0,6.0,76,0.00,,FEW,0.67,378.00,VWS V14.01,2013-09-12 17:43:00,
2013-09-12 13:50:00,86.1,78.1,29.94,ENE,74,1.0,7.0,77,0.00,,FEW,0.67,413.00,VWS V14.01,2013-09-12 17:50:00,
2013-09-12 13:53:00,86.1,78.1,29.94,ENE,74,1.0,7.0,77,0.00,,FEW,0.67,413.00,VWS V14.01,2013-09-12 17:53:00,
2013-09-12 14:00:00,86.5,78.4,29.94,East,85,1.0,5.0,77,0.00,,FEW,0.67,476.00,VWS V14.01,2013-09-12 18:00:00,
2013-09-12 14:03:00,86.5,78.4,29.94,East,85,1.0,5.0,77,0.00,,FEW,0.67,476.00,VWS V14.01,2013-09-12 18:03:00,
2013-09-12 14:10:00,87.0,78.1,29.94,NE,56,2.0,4.0,75,0.00,,FEW,0.67,489.00,VWS V14.01,2013-09-12 18:10:00,
2013-09-12 14:13:00,87.0,78.1,29.94,NE,56,2.0,4.0,75,0.00,,FEW,0.67,489.00,VWS V14.01,2013-09-12 18:13:00,
2013-09-12 14:20:00,86.8,78.3,29.93,East,85,3.0,5.0,76,0.00,,FEW,0.67,420.00,VWS V14.01,2013-09-12 18:20:00,
2013-09-12 14:23:00,86.8,78.3,29.93,East,85,3.0,5.0,76,0.00,,FEW,0.67,420.00,VWS V14.01,2013-09-12 18:23:00,
2013-09-12 14:30:00,87.0,78.9,29.93,ENE,63,1.0,5.0,77,0.00,,FEW,0.67,367.00,VWS V14.01,2013-09-12 18:30:00,
2013-09-12 14:33:00,87.0,78.9,29.93,ENE,63,1.0,5.0,77,0.00,,FEW,0.67,367.00,VWS V14.01,2013-09-12 18:33:00,
2013-09-12 14:40:00,86.8,78.7,29.93,SE,136,1.0,5.0,77,0.00,,FEW,0.67,329.00,VWS V14.01,2013-09-12 18:40:00,
2013-09-12 14:43:00,86.8,78.7,29.93,SE,136,1.0,5.0,77,0.00,,FEW,0.67,329.00,VWS V14.01,2013-09-12 18:43:00,
2013-09-12 14:50:00,86.3,78.6,29.93,ESE,104,0.0,6.0,78,0.00,,FEW,0.67,364.00,VWS V14.01,2013-09-12 18:50:00,
2013-09-12 14:53:00,86.3,78.6,29.93,ESE,104,0.0,6.0,78,0.00,,FEW,0.67,364.00,VWS V14.01,2013-09-12 18:53:00,
2013-09-12 15:00:00,86.6,78.9,29.91,ESE,119,0.0,5.0,78,0.00,,FEW,0.67,345.00,VWS V14.01,2013-09-12 19:00:00,
2013-09-12 15:03:00,86.6,78.9,29.91,ESE,119,0.0,5.0,78,0.00,,FEW,0.67,345.00,VWS V14.01,2013-09-12 19:03:00,
2013-09-12 15:10:00,86.8,78.7,29.91,ENE,69,4.0,7.0,77,0.00,,FEW,0.67,376.00,VWS V14.01,2013-09-12 19:10:00,
2013-09-12 15:13:00,86.8,78.7,29.91,ENE,69,4.0,7.0,77,0.00,,FEW,0.67,376.00,VWS V14.01,2013-09-12 19:13:00,
2013-09-12 15:20:00,86.8,78.7,29.91,ESE,112,1.0,5.0,77,0.00,,FEW,0.67,422.00,VWS V14.01,2013-09-12 19:20:00,
2013-09-12 15:23:00,86.8,78.7,29.91,ESE,112,1.0,5.0,77,0.00,,FEW,0.67,422.00,VWS V14.01,2013-09-12 19:23:00,
2013-09-12 15:30:00,87.0,79.3,29.90,SE,136,1.0,6.0,78,0.00,,FEW,0.67,429.00,VWS V14.01,2013-09-12 19:30:00,
2013-09-12 15:33:00,87.0,79.3,29.90,SE,136,1.0,6.0,78,0.00,,FEW,0.67,429.00,VWS V14.01,2013-09-12 19:33:00,
2013-09-12 15:40:00,87.0,79.3,29.90,SE,125,1.0,6.0,78,0.00,,FEW,0.67,355.00,VWS V14.01,2013-09-12 19:40:00,
2013-09-12 15:43:00,87.0,79.3,29.90,SE,125,1.0,6.0,78,0.00,,FEW,0.67,355.00,VWS V14.01,2013-09-12 19:43:00,
2013-09-12 15:50:00,86.9,79.2,29.89,ENE,57,2.0,7.0,78,0.00,,FEW,0.67,316.00,VWS V14.01,2013-09-12 19:50:00,
2013-09-12 15:53:00,86.9,79.2,29.89,ENE,57,2.0,7.0,78,0.00,,FEW,0.67,316.00,VWS V14.01,2013-09-12 19:53:00,
2013-09-12 16:00:00,86.8,79.1,29.88,SE,132,1.0,8.0,78,0.00,,FEW,0.67,306.00,VWS V14.01,2013-09-12 20:00:00,
2013-09-12 16:03:00,86.8,79.1,29.88,SE,132,1.0,8.0,78,0.00,,FEW,0.67,306.00,VWS V14.01,2013-09-12 20:03:00,
2013-09-12 16:10:00,86.6,78.9,29.88,ESE,120,0.0,6.0,78,0.00,,FEW,0.67,251.00,VWS V14.01,2013-09-12 20:10:00,
2013-09-12 16:13:00,86.6,78.9,29.88,ESE,120,0.0,6.0,78,0.00,,FEW,0.67,251.00,VWS V14.01,2013-09-12 20:13:00,
2013-09-12 16:20:00,86.6,79.3,29.88,ENE,67,2.0,5.0,79,0.00,,FEW,0.67,232.00,VWS V14.01,2013-09-12 20:20:00,
2013-09-12 16:23:00,86.6,79.3,29.88,ENE,67,2.0,5.0,79,0.00,,FEW,0.67,232.00,VWS V14.01,2013-09-12 20:23:00,
2013-09-12 16:30:00,86.6,79.3,29.88,ESE,119,1.0,5.0,79,0.00,,FEW,0.67,211.00,VWS V14.01,2013-09-12 20:30:00,
2013-09-12 16:33:00,86.6,79.3,29.88,ESE,119,1.0,5.0,79,0.00,,FEW,0.67,211.00,VWS V14.01,2013-09-12 20:33:00,
2013-09-12 16:40:00,86.5,78.8,29.88,NE,52,2.0,6.0,78,0.00,,FEW,0.67,204.00,VWS V14.01,2013-09-12 20:40:00,
2013-09-12 16:43:00,86.5,78.8,29.88,NE,52,2.0,6.0,78,0.00,,FEW,0.67,204.00,VWS V14.01,2013-09-12 20:43:00,
2013-09-12 16:50:00,86.6,79.3,29.87,ENE,72,0.0,3.0,79,0.00,,FEW,0.67,211.00,VWS V14.01,2013-09-12 20:50:00,
2013-09-12 16:53:00,86.6,79.3,29.87,ENE,72,0.0,3.0,79,0.00,,FEW,0.67,211.00,VWS V14.01,2013-09-12 20:53:00,
2013-09-12 17:00:00,86.3,78.2,29.87,East,89,1.0,7.0,77,0.00,,FEW,0.67,230.00,VWS V14.01,2013-09-12 21:00:00,
2013-09-12 17:03:00,86.3,78.2,29.87,East,89,1.0,7.0,77,0.00,,FEW,0.67,230.00,VWS V14.01,2013-09-12 21:03:00,
2013-09-12 17:10:00,86.4,78.3,29.87,ENE,62,1.0,5.0,77,0.00,,FEW,0.67,288.00,VWS V14.01,2013-09-12 21:10:00,
2013-09-12 17:13:00,86.4,78.3,29.87,ENE,62,1.0,5.0,77,0.00,,FEW,0.67,288.00,VWS V14.01,2013-09-12 21:13:00,
2013-09-12 17:20:00,86.7,78.6,29.87,East,79,2.0,4.0,77,0.00,,FEW,0.67,236.00,VWS V14.01,2013-09-12 21:20:00,
2013-09-12 17:23:00,86.7,78.6,29.87,East,79,2.0,4.0,77,0.00,,FEW,0.67,236.00,VWS V14.01,2013-09-12 21:23:00,
2013-09-12 17:30:00,86.9,78.8,29.86,ESE,116,2.0,4.0,77,0.00,,FEW,0.67,165.00,VWS V14.01,2013-09-12 21:30:00,
2013-09-12 17:33:00,86.9,78.8,29.86,ESE,116,2.0,4.0,77,0.00,,FEW,0.67,165.00,VWS V14.01,2013-09-12 21:33:00,
2013-09-12 17:40:00,86.8,78.7,29.86,ENE,72,1.0,5.0,77,0.00,,FEW,0.67,146.00,VWS V14.01,2013-09-12 21:40:00,
2013-09-12 17:43:00,86.8,78.7,29.86,ENE,72,1.0,5.0,77,0.00,,FEW,0.67,146.00,VWS V14.01,2013-09-12 21:43:00,
2013-09-12 17:50:00,86.4,78.7,29.87,East,98,1.0,5.0,78,0.00,,FEW,0.67,144.00,VWS V14.01,2013-09-12 21:50:00,
2013-09-12 17:53:00,86.4,78.7,29.87,East,98,1.0,5.0,78,0.00,,FEW,0.67,144.00,VWS V14.01,2013-09-12 21:53:00,
2013-09-12 18:00:00,86.3,79.0,29.87,ESE,109,1.0,4.0,79,0.00,,FEW,0.67,171.00,VWS V14.01,2013-09-12 22:00:00,
2013-09-12 18:03:00,86.3,79.0,29.87,ESE,109,1.0,4.0,79,0.00,,FEW,0.67,171.00,VWS V14.01,2013-09-12 22:03:00,
2013-09-12 18:10:00,85.8,78.2,29.87,East,100,1.0,7.0,78,0.00,,FEW,0.67,102.00,VWS V14.01,2013-09-12 22:10:00,
2013-09-12 18:13:00,85.8,78.2,29.87,East,100,1.0,7.0,78,0.00,,FEW,0.67,102.00,VWS V14.01,2013-09-12 22:13:00,
2013-09-12 18:20:00,85.4,77.8,29.87,ESE,118,1.0,4.0,78,0.00,,FEW,0.67,77.00,VWS V14.01,2013-09-12 22:20:00,
2013-09-12 18:23:00,85.4,77.8,29.87,ESE,118,1.0,4.0,78,0.00,,FEW,0.67,77.00,VWS V14.01,2013-09-12 22:23:00,
2013-09-12 18:30:00,85.0,77.4,29.87,ESE,109,4.0,5.0,78,0.00,,FEW,0.67,53.00,VWS V14.01,2013-09-12 22:30:00,
2013-09-12 18:33:00,85.0,77.4,29.87,ESE,109,4.0,5.0,78,0.00,,FEW,0.67,53.00,VWS V14.01,2013-09-12 22:33:00,
2013-09-12 18:40:00,84.9,77.7,29.87,ESE,117,1.0,4.0,79,0.00,,FEW,0.67,44.00,VWS V14.01,2013-09-12 22:40:00,
2013-09-12 18:43:00,84.9,77.7,29.87,ESE,117,1.0,4.0,79,0.00,,FEW,0.67,44.00,VWS V14.01,2013-09-12 22:43:00,
2013-09-12 18:50:00,84.6,77.8,29.88,ESE,113,2.0,4.0,80,0.00,,FEW,0.67,25.00,VWS V14.01,2013-09-12 22:50:00,
2013-09-12 18:53:00,84.6,77.8,29.88,ESE,113,2.0,4.0,80,0.00,,FEW,0.67,25.00,VWS V14.01,2013-09-12 22:53:00,
2013-09-12 19:00:00,84.5,78.0,29.88,ENE,69,0.0,3.0,81,0.00,,FEW,0.67,14.00,VWS V14.01,2013-09-12 23:00:00,
2013-09-12 19:03:00,84.5,78.0,29.88,ENE,69,0.0,3.0,81,0.00,,FEW,0.67,14.00,VWS V14.01,2013-09-12 23:03:00,
2013-09-12 19:10:00,84.3,77.8,29.88,ESE,108,0.0,2.0,81,0.00,,FEW,0.67,9.00,VWS V14.01,2013-09-12 23:10:00,
2013-09-12 19:13:00,84.3,77.8,29.88,ESE,108,0.0,2.0,81,0.00,,FEW,0.67,9.00,VWS V14.01,2013-09-12 23:13:00,
2013-09-12 19:20:00,84.0,77.5,29.89,ESE,103,0.0,4.0,81,0.00,,FEW,0.67,0.00,VWS V14.01,2013-09-12 23:20:00,
2013-09-12 19:23:00,84.0,77.5,29.89,ESE,103,0.0,4.0,81,0.00,,FEW,0.67,0.00,VWS V14.01,2013-09-12 23:23:00,
2013-09-12 19:30:00,83.8,77.3,29.89,East,84,2.0,4.0,81,0.00,,FEW,0.67,0.00,VWS V14.01,2013-09-12 23:30:00,
2013-09-12 19:33:00,83.8,77.3,29.89,East,84,2.0,4.0,81,0.00,,FEW,0.67,0.00,VWS V14.01,2013-09-12 23:33:00,
2013-09-12 19:40:00,83.7,77.6,29.89,ENE,78,0.0,5.0,82,0.00,,FEW,0.67,0.00,VWS V14.01,2013-09-12 23:40:00,
2013-09-12 19:43:00,83.7,77.6,29.89,ENE,78,0.0,5.0,82,0.00,,FEW,0.67,0.00,VWS V14.01,2013-09-12 23:43:00,
2013-09-12 19:44:00,83.7,77.6,29.89,ENE,77,1.0,1.0,82,0.00,,FEW,0.67,0.00,VWS V14.01,2013-09-12 23:44:00,
2013-09-12 19:45:00,83.6,77.5,29.89,ENE,77,0.0,2.0,82,0.00,,FEW,0.67,0.00,VWS V14.01,2013-09-12 23:45:00,
2013-09-12 19:48:00,83.6,77.5,29.89,ENE,78,1.0,2.0,82,0.00,,FEW,0.67,0.00,VWS V14.01,2013-09-12 23:48:00,
2013-09-12 19:49:00,83.6,77.5,29.89,ENE,78,0.0,2.0,82,0.00,,FEW,0.67,0.00,VWS V14.01,2013-09-12 23:49:00,
2013-09-12 19:50:00,83.6,77.5,29.89,ENE,78,0.0,2.0,82,0.00,,FEW,0.67,0.00,VWS V14.01,2013-09-12 23:50:00,
2013-09-12 19:53:00,83.5,77.4,29.89,ENE,75,0.0,0.0,82,0.00,,FEW,0.67,0.00,VWS V14.01,2013-09-12 23:53:00,
2013-09-12 19:54:00,83.5,77.4,29.89,ENE,72,0.0,2.0,82,0.00,,FEW,0.67,0.00,VWS V14.01,2013-09-12 23:54:00,
2013-09-12 19:55:00,83.5,77.4,29.89,ENE,72,0.0,2.0,82,0.00,,FEW,0.67,0.00,VWS V14.01,2013-09-12 23:55:00,
2013-09-12 19:58:00,83.5,77.8,29.89,ENE,72,0.0,2.0,83,0.00,,FEW,0.67,0.00,VWS V14.01,2013-09-12 23:58:00,
2013-09-12 19:59:00,83.4,77.7,29.89,ENE,72,0.0,2.0,83,0.00,,FEW,0.67,0.00,VWS V14.01,2013-09-12 23:59:00,
2013-09-12 20:00:00,83.4,77.7,29.89,ENE,72,0.0,2.0,83,0.00,,FEW,0.67,0.00,VWS V14.01,2013-09-13 00:00:00,
2013-09-12 20:03:00,83.4,77.7,29.90,ENE,72,0.0,2.0,83,0.00,,FEW,0.67,0.00,VWS V14.01,2013-09-13 00:03:00,
2013-09-12 20:04:00,83.4,77.7,29.90,ENE,68,1.0,1.0,83,0.00,,FEW,0.67,0.00,VWS V14.01,2013-09-13 00:04:00,
2013-09-12 20:05:00,83.4,77.7,29.90,ENE,68,1.0,1.0,83,0.00,,FEW,0.67,0.00,VWS V14.01,2013-09-13 00:05:00,
2013-09-12 20:06:00,83.4,77.7,29.90,ENE,68,0.0,1.0,83,0.00,,FEW,0.67,0.00,VWS V14.01,2013-09-13 00:06:00,
2013-09-12 20:08:00,83.3,77.6,29.90,ENE,69,0.0,1.0,83,0.00,,FEW,0.67,0.00,VWS V14.01,2013-09-13 00:08:00,
2013-09-12 20:10:00,83.3,77.6,29.90,ENE,69,1.0,1.0,83,0.00,,FEW,0.67,0.00,VWS V14.01,2013-09-13 00:10:00,
2013-09-12 20:11:00,83.3,77.6,29.90,ENE,69,0.0,1.0,83,0.00,,FEW,0.67,0.00,VWS V14.01,2013-09-13 00:11:00,
2013-09-12 20:13:00,83.3,77.6,29.90,ENE,69,0.0,0.0,83,0.00,,FEW,0.67,0.00,VWS V14.01,2013-09-13 00:13:00,
2013-09-12 20:15:00,83.3,77.6,29.90,ENE,69,0.0,1.0,83,0.00,,FEW,0.67,0.00,VWS V14.01,2013-09-13 00:15:00,
2013-09-12 20:16:00,83.3,77.6,29.90,ENE,69,1.0,1.0,83,0.00,,FEW,0.67,0.00,VWS V14.01,2013-09-13 00:16:00,
2013-09-12 20:17:00,83.3,77.6,29.90,ENE,69,0.0,1.0,83,0.00,,FEW,0.67,0.00,VWS V14.01,2013-09-13 00:17:00,
2013-09-12 20:18:00,83.3,77.6,29.90,ENE,69,0.0,1.0,83,0.00,,FEW,0.67,0.00,VWS V14.01,2013-09-13 00:18:00,
2013-09-12 20:20:00,83.3,78.0,29.90,ENE,69,0.0,1.0,84,0.00,,FEW,0.67,0.00,VWS V14.01,2013-09-13 00:20:00,
2013-09-12 20:21:00,83.2,77.9,29.90,ENE,69,0.0,1.0,84,0.00,,FEW,0.67,0.00,VWS V14.01,2013-09-13 00:21:00,
2013-09-12 20:22:00,83.3,78.0,29.90,ENE,69,0.0,1.0,84,0.00,,FEW,0.67,0.00,VWS V14.01,2013-09-13 00:22:00,
2013-09-12 20:23:00,83.3,78.0,29.90,ENE,69,0.0,1.0,84,0.00,,FEW,0.67,0.00,VWS V14.01,2013-09-13 00:23:00,
2013-09-12 20:25:00,83.3,78.0,29.90,ENE,69,0.0,1.0,84,0.00,,FEW,0.67,0.00,VWS V14.01,2013-09-13 00:25:00,
2013-09-12 20:26:00,83.3,78.0,29.90,ENE,70,1.0,1.0,84,0.00,,FEW,0.67,0.00,VWS V14.01,2013-09-13 00:26:00,
2013-09-12 20:27:00,83.3,78.0,29.90,ENE,61,0.0,2.0,84,0.00,,FEW,0.67,0.00,VWS V14.01,2013-09-13 00:27:00,
2013-09-12 20:28:00,83.2,77.9,29.90,ENE,61,1.0,2.0,84,0.00,,FEW,0.67,0.00,VWS V14.01,2013-09-13 00:28:00,
2013-09-12 20:29:00,83.2,77.9,29.90,ENE,65,1.0,2.0,84,0.00,,FEW,0.67,0.00,VWS V14.01,2013-09-13 00:29:00,
2013-09-12 20:30:00,83.2,77.9,29.90,SE,130,1.0,2.0,84,0.00,,FEW,0.67,0.00,VWS V14.01,2013-09-13 00:30:00,
2013-09-12 20:32:00,83.2,77.9,29.90,ENE,76,1.0,3.0,84,0.00,,FEW,0.67,0.00,VWS V14.01,2013-09-13 00:32:00,
2013-09-12 20:33:00,83.2,77.9,29.90,East,101,2.0,2.0,84,0.00,,FEW,0.67,0.00,VWS V14.01,2013-09-13 00:33:00,
2013-09-12 20:34:00,83.2,77.9,29.90,SE,133,0.0,2.0,84,0.00,,FEW,0.67,0.00,VWS V14.01,2013-09-13 00:34:00,
2013-09-12 20:35:00,83.2,77.9,29.90,SE,130,0.0,2.0,84,0.00,,FEW,0.67,0.00,VWS V14.01,2013-09-13 00:35:00,
2013-09-12 20:36:00,83.2,77.9,29.90,SE,130,0.0,2.0,84,0.00,,FEW,0.67,0.00,VWS V14.01,2013-09-13 00:36:00,
2013-09-12 20:37:00,83.2,77.9,29.90,SE,133,0.0,3.0,84,0.00,,FEW,0.67,0.00,VWS V14.01,2013-09-13 00:37:00,
2013-09-12 20:39:00,83.1,77.8,29.90,SE,133,0.0,3.0,84,0.00,,FEW,0.67,0.00,VWS V14.01,2013-09-13 00:39:00,
2013-09-12 20:40:00,83.1,77.8,29.90,ESE,119,0.0,3.0,84,0.00,,FEW,0.67,0.00,VWS V14.01,2013-09-13 00:40:00,
2013-09-12 20:41:00,83.1,77.8,29.90,ESE,119,0.0,3.0,84,0.00,,FEW,0.67,0.00,VWS V14.01,2013-09-13 00:41:00,
2013-09-12 20:42:00,83.1,77.8,29.90,ESE,102,0.0,3.0,84,0.00,,FEW,0.67,0.00,VWS V14.01,2013-09-13 00:42:00,
2013-09-12 20:44:00,83.1,77.8,29.90,ENE,77,2.0,2.0,84,0.00,,FEW,0.67,0.00,VWS V14.01,2013-09-13 00:44:00,
2013-09-12 20:45:00,83.1,77.8,29.90,ENE,78,0.0,2.0,84,0.00,,FEW,0.67,0.00,VWS V14.01,2013-09-13 00:45:00,
2013-09-12 20:46:00,83.1,77.8,29.90,ENE,78,0.0,2.0,84,0.00,,FEW,0.67,0.00,VWS V14.01,2013-09-13 00:46:00,
2013-09-12 20:48:00,83.0,77.7,29.90,ESE,109,0.0,2.0,84,0.00,,FEW,0.67,0.00,VWS V14.01,2013-09-13 00:48:00,
2013-09-12 20:49:00,83.0,77.7,29.90,ESE,106,2.0,2.0,84,0.00,,FEW,0.67,0.00,VWS V14.01,2013-09-13 00:49:00,
2013-09-12 20:50:00,83.0,77.7,29.90,ESE,107,0.0,2.0,84,0.00,,FEW,0.67,0.00,VWS V14.01,2013-09-13 00:50:00,
2013-09-12 20:54:00,83.0,77.3,29.90,East,101,0.0,1.0,83,0.00,,FEW,0.67,0.00,VWS V14.01,2013-09-13 00:54:00,
2013-09-12 20:55:00,83.0,77.3,29.90,East,101,0.0,1.0,83,0.00,,FEW,0.67,0.00,VWS V14.01,2013-09-13 00:55:00,
2013-09-12 20:56:00,82.9,77.2,29.90,East,101,0.0,1.0,83,0.00,,FEW,0.67,0.00,VWS V14.01,2013-09-13 00:56:00,
2013-09-12 20:59:00,82.9,77.2,29.90,ENE,72,1.0,3.0,83,0.00,,FEW,0.67,0.00,VWS V14.01,2013-09-13 00:59:00,
2013-09-12 21:00:00,82.9,77.2,29.90,ENE,72,0.0,3.0,83,0.00,,FEW,0.67,0.00,VWS V14.01,2013-09-13 01:00:00,
2013-09-12 21:01:00,82.9,77.2,29.90,East,99,1.0,3.0,83,0.00,,FEW,0.67,0.00,VWS V14.01,2013-09-13 01:01:00,
2013-09-12 21:04:00,82.8,77.1,29.91,ENE,78,0.0,1.0,83,0.00,,FEW,0.67,0.00,VWS V14.01,2013-09-13 01:04:00,
2013-09-12 21:05:00,82.8,77.1,29.91,East,91,1.0,1.0,83,0.00,,FEW,0.67,0.00,VWS V14.01,2013-09-13 01:05:00,
2013-09-12 21:06:00,82.8,77.1,29.91,ENE,57,1.0,2.0,83,0.00,,FEW,0.67,0.00,VWS V14.01,2013-09-13 01:06:00,
2013-09-12 21:09:00,82.8,77.1,29.91,ENE,58,0.0,3.0,83,0.00,,FEW,0.67,0.00,VWS V14.01,2013-09-13 01:09:00,
2013-09-12 21:10:00,82.8,77.1,29.91,East,80,1.0,3.0,83,0.00,,FEW,0.67,0.00,VWS V14.01,2013-09-13 01:10:00,
2013-09-12 21:11:00,82.8,77.1,29.91,East,80,0.0,3.0,83,0.00,,FEW,0.67,0.00,VWS V14.01,2013-09-13 01:11:00,
2013-09-12 21:14:00,82.9,76.8,29.91,ENE,57,1.0,1.0,82,0.00,,FEW,0.67,0.00,VWS V14.01,2013-09-13 01:14:00,
2013-09-12 21:15:00,82.8,76.8,29.91,East,86,0.0,1.0,82,0.00,,FEW,0.67,0.00,VWS V14.01,2013-09-13 01:15:00,
2013-09-12 21:16:00,82.8,76.8,29.91,ENE,78,2.0,2.0,82,0.00,,FEW,0.67,0.00,VWS V14.01,2013-09-13 01:16:00,
2013-09-12 21:19:00,82.8,76.8,29.91,East,101,2.0,2.0,82,0.00,,FEW,0.67,0.00,VWS V14.01,2013-09-13 01:19:00,
2013-09-12 21:20:00,82.8,76.8,29.91,East,101,0.0,2.0,82,0.00,,FEW,0.67,0.00,VWS V14.01,2013-09-13 01:20:00,
2013-09-12 21:21:00,82.8,76.8,29.91,ESE,105,0.0,2.0,82,0.00,,FEW,0.67,0.00,VWS V14.01,2013-09-13 01:21:00,
2013-09-12 21:24:00,82.8,76.8,29.91,East,94,1.0,2.0,82,0.00,,FEW,0.67,0.00,VWS V14.01,2013-09-13 01:24:00,
2013-09-12 21:25:00,82.8,76.8,29.91,East,94,1.0,2.0,82,0.00,,FEW,0.67,0.00,VWS V14.01,2013-09-13 01:25:00,
2013-09-12 21:26:00,82.8,76.8,29.91,East,94,1.0,2.0,82,0.00,,FEW,0.67,0.00,VWS V14.01,2013-09-13 01:26:00,
2013-09-12 21:27:00,82.8,76.8,29.91,East,93,0.0,2.0,82,0.00,,FEW,0.67,0.00,VWS V14.01,2013-09-13 01:27:00,
2013-09-12 21:29:00,82.8,76.8,29.91,ENE,73,0.0,3.0,82,0.00,,FEW,0.67,0.00,VWS V14.01,2013-09-13 01:29:00,
2013-09-12 21:30:00,82.8,76.8,29.91,ENE,74,1.0,3.0,82,0.00,,FEW,0.67,0.00,VWS V14.01,2013-09-13 01:30:00,
2013-09-12 21:31:00,82.8,76.8,29.91,ENE,74,0.0,3.0,82,0.00,,FEW,0.67,0.00,VWS V14.01,2013-09-13 01:31:00,
2013-09-12 21:32:00,82.8,76.8,29.91,ENE,74,0.0,3.0,82,0.00,,FEW,0.67,0.00,VWS V14.01,2013-09-13 01:32:00,
2013-09-12 21:34:00,82.8,76.8,29.91,ENE,68,0.0,1.0,82,0.00,,FEW,0.67,0.00,VWS V14.01,2013-09-13 01:34:00,
2013-09-12 21:36:00,82.8,76.8,29.91,ENE,77,2.0,2.0,82,0.00,,FEW,0.67,0.00,VWS V14.01,2013-09-13 01:36:00,
2013-09-12 21:37:00,82.8,76.8,29.91,ENE,77,1.0,2.0,82,0.00,,FEW,0.67,0.00,VWS V14.01,2013-09-13 01:37:00,
2013-09-12 21:40:00,82.8,76.8,29.91,East,92,0.0,2.0,82,0.00,,FEW,0.67,0.00,VWS V14.01,2013-09-13 01:40:00,
2013-09-12 21:41:00,82.8,76.8,29.91,East,90,1.0,2.0,82,0.00,,FEW,0.67,0.00,VWS V14.01,2013-09-13 01:41:00,
2013-09-12 21:42:00,82.8,76.8,29.91,East,90,1.0,2.0,82,0.00,,FEW,0.67,0.00,VWS V14.01,2013-09-13 01:42:00,
2013-09-12 21:45:00,82.8,76.8,29.91,East,88,0.0,2.0,82,0.00,,FEW,0.67,0.00,VWS V14.01,2013-09-13 01:45:00,
2013-09-12 21:47:00,82.8,76.8,29.91,East,89,1.0,2.0,82,0.00,,FEW,0.67,0.00,VWS V14.01,2013-09-13 01:47:00,
2013-09-12 21:48:00,82.8,76.8,29.91,East,89,0.0,2.0,82,0.00,,FEW,0.67,0.00,VWS V14.01,2013-09-13 01:48:00,
2013-09-12 21:50:00,82.7,76.7,29.91,East,89,0.0,2.0,82,0.00,,FEW,0.67,0.00,VWS V14.01,2013-09-13 01:50:00,
2013-09-12 21:52:00,82.7,76.7,29.91,ENE,74,0.0,2.0,82,0.00,,FEW,0.67,0.00,VWS V14.01,2013-09-13 01:52:00,
2013-09-12 21:53:00,82.7,76.7,29.91,ENE,74,0.0,2.0,82,0.00,,FEW,0.67,0.00,VWS V14.01,2013-09-13 01:53:00,
2013-09-12 21:55:00,82.7,76.7,29.91,ESE,102,1.0,2.0,82,0.00,,FEW,0.67,0.00,VWS V14.01,2013-09-13 01:55:00,
2013-09-12 21:57:00,82.7,76.7,29.91,ENE,57,0.0,2.0,82,0.00,,FEW,0.67,0.00,VWS V14.01,2013-09-13 01:57:00,
2013-09-12 21:58:00,82.7,76.7,29.91,ENE,57,0.0,2.0,82,0.00,,FEW,0.67,0.00,VWS V14.01,2013-09-13 01:58:00,
2013-09-12 22:00:00,82.7,76.7,29.91,ENE,57,0.0,2.0,82,0.00,,FEW,0.67,0.00,VWS V14.01,2013-09-13 02:00:00,
2013-09-12 22:02:00,82.7,76.7,29.91,ENE,67,0.0,2.0,82,0.00,,FEW,0.67,0.00,VWS V14.01,2013-09-13 02:02:00,
2013-09-12 22:03:00,82.7,76.7,29.91,ENE,67,0.0,2.0,82,0.00,,FEW,0.67,0.00,VWS V14.01,2013-09-13 02:03:00,
2013-09-12 22:05:00,82.7,76.7,29.91,East,85,1.0,3.0,82,0.00,,FEW,0.67,0.00,VWS V14.01,2013-09-13 02:05:00,
2013-09-12 22:08:00,82.6,76.6,29.91,NE,55,0.0,3.0,82,0.00,,FEW,0.67,0.00,VWS V14.01,2013-09-13 02:08:00,
2013-09-12 22:09:00,82.6,76.6,29.91,NE,55,0.0,3.0,82,0.00,,FEW,0.67,0.00,VWS V14.01,2013-09-13 02:09:00,
2013-09-12 22:10:00,82.6,76.6,29.91,NE,55,0.0,3.0,82,0.00,,FEW,0.67,0.00,VWS V14.01,2013-09-13 02:10:00,
2013-09-12 22:13:00,82.6,76.6,29.91,NE,55,0.0,3.0,82,0.00,,FEW,0.67,0.00,VWS V14.01,2013-09-13 02:13:00,
2013-09-12 22:14:00,82.6,76.6,29.91,NE,55,0.0,1.0,82,0.00,,FEW,0.67,0.00,VWS V14.01,2013-09-13 02:14:00,
2013-09-12 22:15:00,82.6,76.6,29.91,NE,55,0.0,1.0,82,0.00,,FEW,0.67,0.00,VWS V14.01,2013-09-13 02:15:00,
2013-09-12 22:18:00,82.6,76.6,29.91,NE,55,0.0,1.0,82,0.00,,FEW,0.67,0.00,VWS V14.01,2013-09-13 02:18:00,
2013-09-12 22:19:00,82.5,76.4,29.91,NE,55,0.0,1.0,82,0.00,,FEW,0.67,0.00,VWS V14.01,2013-09-13 02:19:00,
2013-09-12 22:20:00,82.5,76.4,29.91,NE,55,0.0,1.0,82,0.00,,FEW,0.67,0.00,VWS V14.01,2013-09-13 02:20:00,
2013-09-12 22:21:00,82.5,76.4,29.91,NE,55,0.0,1.0,82,0.00,,FEW,0.67,0.00,VWS V14.01,2013-09-13 02:21:00,
2013-09-12 22:23:00,82.5,76.4,29.91,NE,55,0.0,1.0,82,0.00,,FEW,0.67,0.00,VWS V14.01,2013-09-13 02:23:00,
2013-09-12 22:25:00,82.4,76.4,29.91,NE,55,1.0,2.0,82,0.00,,FEW,0.67,0.00,VWS V14.01,2013-09-13 02:25:00,
2013-09-12 22:26:00,82.4,76.4,29.91,NE,55,0.0,2.0,82,0.00,,FEW,0.67,0.00,VWS V14.01,2013-09-13 02:26:00,
2013-09-12 22:28:00,82.4,76.4,29.91,NE,48,0.0,3.0,82,0.00,,FEW,0.67,0.00,VWS V14.01,2013-09-13 02:28:00,
2013-09-12 22:29:00,82.3,76.3,29.91,NE,48,0.0,3.0,82,0.00,,FEW,0.67,0.00,VWS V14.01,2013-09-13 02:29:00,
2013-09-12 22:30:00,82.3,75.9,29.91,NE,48,0.0,3.0,81,0.00,,FEW,0.67,0.00,VWS V14.01,2013-09-13 02:30:00,
2013-09-12 22:31:00,82.3,75.9,29.91,NE,48,0.0,3.0,81,0.00,,FEW,0.67,0.00,VWS V14.01,2013-09-13 02:31:00,
2013-09-12 22:32:00,82.3,75.9,29.91,NE,48,1.0,3.0,81,0.00,,FEW,0.67,0.00,VWS V14.01,2013-09-13 02:32:00,
2013-09-12 22:33:00,82.3,75.9,29.91,NE,49,0.0,3.0,81,0.00,,FEW,0.67,0.00,VWS V14.01,2013-09-13 02:33:00,
2013-09-12 22:34:00,82.3,75.9,29.91,East,82,0.0,1.0,81,0.00,,FEW,0.67,0.00,VWS V14.01,2013-09-13 02:34:00,
2013-09-12 22:35:00,82.3,75.9,29.91,ENE,77,0.0,1.0,81,0.00,,FEW,0.67,0.00,VWS V14.01,2013-09-13 02:35:00,
2013-09-12 22:36:00,82.3,75.9,29.91,ENE,57,3.0,3.0,81,0.00,,FEW,0.67,0.00,VWS V14.01,2013-09-13 02:36:00,
2013-09-12 22:37:00,82.3,75.9,29.91,ENE,57,0.0,3.0,81,0.00,,FEW,0.67,0.00,VWS V14.01,2013-09-13 02:37:00,
2013-09-12 22:38:00,82.3,75.9,29.91,ENE,59,1.0,3.0,81,0.00,,FEW,0.67,0.00,VWS V14.01,2013-09-13 02:38:00,
2013-09-12 22:39:00,82.3,75.9,29.91,ENE,59,2.0,3.0,81,0.00,,FEW,0.67,0.00,VWS V14.01,2013-09-13 02:39:00,
2013-09-12 22:40:00,82.3,75.9,29.91,ENE,59,1.0,3.0,81,0.00,,FEW,0.67,0.00,VWS V14.01,2013-09-13 02:40:00,
2013-09-12 22:41:00,82.3,76.3,29.91,ENE,59,0.0,3.0,82,0.00,,FEW,0.67,0.00,VWS V14.01,2013-09-13 02:41:00,
2013-09-12 22:42:00,82.3,76.3,29.91,ENE,59,0.0,3.0,82,0.00,,FEW,0.67,0.00,VWS V14.01,2013-09-13 02:42:00,
2013-09-12 22:43:00,82.3,76.3,29.91,ENE,59,0.0,0.0,82,0.00,,FEW,0.67,0.00,VWS V14.01,2013-09-13 02:43:00,
2013-09-12 22:44:00,82.3,76.3,29.91,ENE,59,0.0,0.0,82,0.00,,FEW,0.67,0.00,VWS V14.01,2013-09-13 02:44:00,
2013-09-12 22:45:00,82.4,76.4,29.91,ENE,59,0.0,1.0,82,0.00,,FEW,0.67,0.00,VWS V14.01,2013-09-13 02:45:00,
2013-09-12 22:47:00,82.4,76.4,29.91,ENE,59,0.0,1.0,82,0.00,,FEW,0.67,0.00,VWS V14.01,2013-09-13 02:47:00,
2013-09-12 22:48:00,82.4,76.4,29.91,ESE,119,0.0,2.0,82,0.00,,FEW,0.67,0.00,VWS V14.01,2013-09-13 02:48:00,
2013-09-12 22:49:00,82.4,76.4,29.91,ESE,118,2.0,2.0,82,0.00,,FEW,0.67,0.00,VWS V14.01,2013-09-13 02:49:00,
2013-09-12 22:51:00,82.4,76.4,29.91,ESE,118,0.0,2.0,82,0.00,,FEW,0.67,0.00,VWS V14.01,2013-09-13 02:51:00,
2013-09-12 22:52:00,82.4,76.4,29.91,ESE,118,0.0,2.0,82,0.00,,FEW,0.67,0.00,VWS V14.01,2013-09-13 02:52:00,
2013-09-12 22:53:00,82.4,76.4,29.91,ESE,118,0.0,2.0,82,0.00,,FEW,0.67,0.00,VWS V14.01,2013-09-13 02:53:00,
2013-09-12 22:54:00,82.4,76.4,29.91,ESE,118,0.0,0.0,82,0.00,,FEW,0.67,0.00,VWS V14.01,2013-09-13 02:54:00,
2013-09-12 22:56:00,82.4,76.4,29.91,ESE,118,0.0,0.0,82,0.00,,FEW,0.67,0.00,VWS V14.01,2013-09-13 02:56:00,
2013-09-12 22:57:00,82.4,76.4,29.91,ESE,118,0.0,1.0,82,0.00,,FEW,0.67,0.00,VWS V14.01,2013-09-13 02:57:00,
2013-09-12 22:58:00,82.4,76.4,29.91,ESE,118,0.0,1.0,82,0.00,,FEW,0.67,0.00,VWS V14.01,2013-09-13 02:58:00,
2013-09-12 22:59:00,82.4,76.4,29.91,ENE,75,3.0,3.0,82,0.00,,FEW,0.67,0.00,VWS V14.01,2013-09-13 02:59:00,
2013-09-12 23:01:00,82.4,76.4,29.91,ENE,67,0.0,3.0,82,0.00,,FEW,0.67,0.00,VWS V14.01,2013-09-13 03:01:00,
2013-09-12 23:03:00,82.4,76.4,29.90,ENE,66,1.0,3.0,82,0.00,,FEW,0.67,0.00,VWS V14.01,2013-09-13 03:03:00,
2013-09-12 23:04:00,82.4,76.4,29.90,ENE,66,0.0,1.0,82,0.00,,FEW,0.67,0.00,VWS V14.01,2013-09-13 03:04:00,
2013-09-12 23:06:00,82.4,76.4,29.90,East,85,0.0,1.0,82,0.00,,FEW,0.67,0.00,VWS V14.01,2013-09-13 03:06:00,
2013-09-12 23:08:00,82.4,76.4,29.90,East,79,1.0,2.0,82,0.00,,FEW,0.67,0.00,VWS V14.01,2013-09-13 03:08:00,
2013-09-12 23:09:00,82.4,76.4,29.90,East,85,0.0,2.0,82,0.00,,FEW,0.67,0.00,VWS V14.01,2013-09-13 03:09:00,
2013-09-12 23:11:00,82.4,76.4,29.90,ENE,63,0.0,2.0,82,0.00,,FEW,0.67,0.00,VWS V14.01,2013-09-13 03:11:00,
2013-09-12 23:14:00,82.4,76.4,29.90,East,101,1.0,3.0,82,0.00,,FEW,0.67,0.00,VWS V14.01,2013-09-13 03:14:00,
2013-09-12 23:16:00,82.4,76.4,29.90,SE,126,1.0,3.0,82,0.00,,FEW,0.67,0.00,VWS V14.01,2013-09-13 03:16:00,
2013-09-12 23:19:00,82.4,76.4,29.90,ESE,105,1.0,3.0,82,0.00,,FEW,0.67,0.00,VWS V14.01,2013-09-13 03:19:00,
2013-09-12 23:21:00,82.4,76.4,29.90,ENE,67,1.0,3.0,82,0.00,,FEW,0.67,0.00,VWS V14.01,2013-09-13 03:21:00,
2013-09-12 23:24:00,82.4,76.4,29.90,East,95,0.0,1.0,82,0.00,,FEW,0.67,0.00,VWS V14.01,2013-09-13 03:24:00,
2013-09-12 23:26:00,82.5,76.4,29.90,ESE,115,2.0,2.0,82,0.00,,FEW,0.67,0.00,VWS V14.01,2013-09-13 03:26:00,
2013-09-12 23:29:00,82.4,76.4,29.90,ESE,113,2.0,3.0,82,0.00,,FEW,0.67,0.00,VWS V14.01,2013-09-13 03:29:00,
2013-09-12 23:30:00,82.4,76.4,29.90,ESE,115,1.0,3.0,82,0.00,,FEW,0.67,0.00,VWS V14.01,2013-09-13 03:30:00,
2013-09-12 23:31:00,82.4,76.4,29.90,ENE,77,1.0,3.0,82,0.00,,FEW,0.67,0.00,VWS V14.01,2013-09-13 03:31:00,
2013-09-12 23:34:00,82.4,76.4,29.90,ENE,60,0.0,2.0,82,0.00,,FEW,0.67,0.00,VWS V14.01,2013-09-13 03:34:00,
2013-09-12 23:35:00,82.4,76.4,29.90,ENE,60,0.0,2.0,82,0.00,,FEW,0.67,0.00,VWS V14.01,2013-09-13 03:35:00,
2013-09-12 23:36:00,82.4,76.4,29.90,ENE,60,0.0,2.0,82,0.00,,FEW,0.67,0.00,VWS V14.01,2013-09-13 03:36:00,
2013-09-12 23:39:00,82.5,76.4,29.90,SE,126,1.0,3.0,82,0.00,,FEW,0.67,0.00,VWS V14.01,2013-09-13 03:39:00,
2013-09-12 23:40:00,82.5,76.4,29.90,ESE,109,0.0,3.0,82,0.00,,FEW,0.67,0.00,VWS V14.01,2013-09-13 03:40:00,
2013-09-12 23:41:00,82.5,76.8,29.90,East,97,1.0,3.0,83,0.00,,FEW,0.67,0.00,VWS V14.01,2013-09-13 03:41:00,
2013-09-12 23:45:00,82.5,76.8,29.90,East,90,0.0,3.0,83,0.00,,FEW,0.67,0.00,VWS V14.01,2013-09-13 03:45:00,
2013-09-12 23:46:00,82.6,76.9,29.90,ESE,109,2.0,3.0,83,0.00,,FEW,0.67,0.00,VWS V14.01,2013-09-13 03:46:00,
2013-09-12 23:48:00,82.6,76.9,29.89,ESE,108,0.0,3.0,83,0.00,,FEW,0.67,0.00,VWS V14.01,2013-09-13 03:48:00,
2013-09-12 23:50:00,82.6,76.9,29.89,ESE,108,0.0,3.0,83,0.00,,FEW,0.67,0.00,VWS V14.01,2013-09-13 03:50:00,
2013-09-12 23:51:00,82.6,76.9,29.89,SE,132,0.0,3.0,83,0.00,,FEW,0.67,0.00,VWS V14.01,2013-09-13 03:51:00,
2013-09-12 23:52:00,82.6,76.9,29.89,ESE,106,2.0,3.0,83,0.00,,FEW,0.67,0.00,VWS V14.01,2013-09-13 03:52:00,
2013-09-12 23:53:00,82.5,76.8,29.89,East,99,0.0,3.0,83,0.00,,FEW,0.67,0.00,VWS V14.01,2013-09-13 03:53:00,
2013-09-12 23:55:00,82.5,76.8,29.89,SE,133,0.0,3.0,83,0.00,,FEW,0.67,0.00,VWS V14.01,2013-09-13 03:55:00,
2013-09-12 23:56:00,82.5,76.4,29.89,ENE,72,1.0,3.0,82,0.00,,FEW,0.67,0.00,VWS V14.01,2013-09-13 03:56:00,
2013-09-12 23:57:00,82.5,76.4,29.89,ENE,72,0.0,3.0,82,0.00,,FEW,0.67,0.00,VWS V14.01,2013-09-13 03:57:00,
2013-09-12 23:58:00,82.4,76.4,29.89,ESE,117,0.0,3.0,82,0.00,,FEW,0.67,0.00,VWS V14.01,2013-09-13 03:58:00,